<?xml version="1.0" encoding="UTF-8" standalone="no" ?><gpx xmlns="http://www.topografix.com/GPX/1/1" xmlns:gpxx="http://www.garmin.com/xmlschemas/GpxExtensions/v3" xmlns:wptx1="http://www.garmin.com/xmlschemas/WaypointExtension/v1" xmlns:gpxtpx="http://www.garmin.com/xmlschemas/TrackPointExtension/v1" creator="GuideVTT.com" version="1.1" xmlns:xsi="http://www.w3.org/2001/XMLSchema-instance" xsi:schemaLocation="http://www.topografix.com/GPX/1/1 http://www.topografix.com/GPX/1/1/gpx.xsd http://www.garmin.com/xmlschemas/GpxExtensions/v3 http://www8.garmin.com/xmlschemas/GpxExtensionsv3.xsd http://www.garmin.com/xmlschemas/WaypointExtension/v1 http://www8.garmin.com/xmlschemas/WaypointExtensionv1.xsd http://www.garmin.com/xmlschemas/TrackPointExtension/v1 http://www.garmin.com/xmlschemas/TrackPointExtensionv1.xsd">
<metadata><link href="http://www.garmin.com"><text>Garmin International</text></link><time>2013-06-22T15:13:50Z</time></metadata>
<trk><name>aubonne_alboretum_bougy.gpx</name><extensions><gpxx:TrackExtension><gpxx:DisplayColor>Cyan</gpxx:DisplayColor></gpxx:TrackExtension></extensions><trkseg>
<trkpt lat="46.46253817" lon="6.33652660"><ele>430.751007</ele><time>2009-07-21T17:27:43Z</time></trkpt>
<trkpt lat="46.46263422" lon="6.33691359"><ele>431.832001</ele><time>2009-07-21T17:27:49Z</time></trkpt>
<trkpt lat="46.46265820" lon="6.33697755"><ele>431.992004</ele><time>2009-07-21T17:27:50Z</time></trkpt>
<trkpt lat="46.46307620" lon="6.33790559"><ele>431.700012</ele><time>2009-07-21T17:28:03Z</time></trkpt>
<trkpt lat="46.46319615" lon="6.33814858"><ele>431.631012</ele><time>2009-07-21T17:28:06Z</time></trkpt>
<trkpt lat="46.46345020" lon="6.33848855"><ele>432.660004</ele><time>2009-07-21T17:28:12Z</time></trkpt>
<trkpt lat="46.46394515" lon="6.33991457"><ele>432.132996</ele><time>2009-07-21T17:28:30Z</time></trkpt>
<trkpt lat="46.46434623" lon="6.34137754"><ele>431.477997</ele><time>2009-07-21T17:28:47Z</time></trkpt>
<trkpt lat="46.46443818" lon="6.34178256"><ele>430.471985</ele><time>2009-07-21T17:28:51Z</time></trkpt>
<trkpt lat="46.46455519" lon="6.34182254"><ele>430.621002</ele><time>2009-07-21T17:28:55Z</time></trkpt>
<trkpt lat="46.46470816" lon="6.34175356"><ele>431.328003</ele><time>2009-07-21T17:28:59Z</time></trkpt>
<trkpt lat="46.46482022" lon="6.34214960"><ele>433.209991</ele><time>2009-07-21T17:29:09Z</time></trkpt>
<trkpt lat="46.46496515" lon="6.34284454"><ele>434.587006</ele><time>2009-07-21T17:29:21Z</time></trkpt>
<trkpt lat="46.46534518" lon="6.34433158"><ele>436.217987</ele><time>2009-07-21T17:29:42Z</time></trkpt>
<trkpt lat="46.46559320" lon="6.34507757"><ele>438.042999</ele><time>2009-07-21T17:29:52Z</time></trkpt>
<trkpt lat="46.46576822" lon="6.34531561"><ele>437.708008</ele><time>2009-07-21T17:29:56Z</time></trkpt>
<trkpt lat="46.46607717" lon="6.34552759"><ele>436.993988</ele><time>2009-07-21T17:30:02Z</time></trkpt>
<trkpt lat="46.46644715" lon="6.34556556"><ele>436.752014</ele><time>2009-07-21T17:30:09Z</time></trkpt>
<trkpt lat="46.46674119" lon="6.34551259"><ele>438.363007</ele><time>2009-07-21T17:30:16Z</time></trkpt>
<trkpt lat="46.46684915" lon="6.34542961"><ele>438.697998</ele><time>2009-07-21T17:30:19Z</time></trkpt>
<trkpt lat="46.46710522" lon="6.34593160"><ele>440.069</ele><time>2009-07-21T17:30:29Z</time></trkpt>
<trkpt lat="46.46766219" lon="6.34724655"><ele>445.436005</ele><time>2009-07-21T17:30:52Z</time></trkpt>
<trkpt lat="46.46826318" lon="6.34864256"><ele>445.063995</ele><time>2009-07-21T17:31:11Z</time></trkpt>
<trkpt lat="46.46892719" lon="6.35021760"><ele>444.479004</ele><time>2009-07-21T17:31:27Z</time></trkpt>
<trkpt lat="46.46963823" lon="6.35208861"><ele>447.761993</ele><time>2009-07-21T17:31:50Z</time></trkpt>
<trkpt lat="46.46992522" lon="6.35283854"><ele>447.980988</ele><time>2009-07-21T17:31:59Z</time></trkpt>
<trkpt lat="46.46972615" lon="6.35315755"><ele>447.153992</ele><time>2009-07-21T17:32:04Z</time></trkpt>
<trkpt lat="46.46949615" lon="6.35326560"><ele>445.636993</ele><time>2009-07-21T17:32:07Z</time></trkpt>
<trkpt lat="46.46937118" lon="6.35362862"><ele>443.187012</ele><time>2009-07-21T17:32:11Z</time></trkpt>
<trkpt lat="46.46940420" lon="6.35373758"><ele>443.059998</ele><time>2009-07-21T17:32:12Z</time></trkpt>
<trkpt lat="46.47003721" lon="6.35569459"><ele>446.170013</ele><time>2009-07-21T17:32:32Z</time></trkpt>
<trkpt lat="46.47044918" lon="6.35752662"><ele>446.963989</ele><time>2009-07-21T17:32:50Z</time></trkpt>
<trkpt lat="46.47061120" lon="6.35826758"><ele>447.334015</ele><time>2009-07-21T17:32:57Z</time></trkpt>
<trkpt lat="46.47078420" lon="6.35867955"><ele>450.125</ele><time>2009-07-21T17:33:02Z</time></trkpt>
<trkpt lat="46.47069619" lon="6.35888759"><ele>452.31601</ele><time>2009-07-21T17:33:06Z</time></trkpt>
<trkpt lat="46.46996118" lon="6.35941959"><ele>447.785004</ele><time>2009-07-21T17:33:17Z</time></trkpt>
<trkpt lat="46.46949515" lon="6.36001856"><ele>446.485992</ele><time>2009-07-21T17:33:24Z</time></trkpt>
<trkpt lat="46.46897421" lon="6.36142454"><ele>446.618011</ele><time>2009-07-21T17:33:38Z</time></trkpt>
<trkpt lat="46.46855017" lon="6.36176258"><ele>446.916992</ele><time>2009-07-21T17:33:45Z</time></trkpt>
<trkpt lat="46.46812622" lon="6.36188856"><ele>449.199005</ele><time>2009-07-21T17:33:52Z</time></trkpt>
<trkpt lat="46.46778021" lon="6.36241956"><ele>449.447998</ele><time>2009-07-21T17:34:01Z</time></trkpt>
<trkpt lat="46.46758416" lon="6.36391958"><ele>447.98999</ele><time>2009-07-21T17:34:16Z</time></trkpt>
<trkpt lat="46.46773721" lon="6.36532456"><ele>446.295013</ele><time>2009-07-21T17:34:28Z</time></trkpt>
<trkpt lat="46.46779119" lon="6.36592160"><ele>445.944</ele><time>2009-07-21T17:34:33Z</time></trkpt>
<trkpt lat="46.46805522" lon="6.36663356"><ele>444.377014</ele><time>2009-07-21T17:34:40Z</time></trkpt>
<trkpt lat="46.46804617" lon="6.36674261"><ele>444.640991</ele><time>2009-07-21T17:34:41Z</time></trkpt>
<trkpt lat="46.46802018" lon="6.36757158"><ele>446.934998</ele><time>2009-07-21T17:34:48Z</time></trkpt>
<trkpt lat="46.46777518" lon="6.36842360"><ele>447.725006</ele><time>2009-07-21T17:34:56Z</time></trkpt>
<trkpt lat="46.46744317" lon="6.37015957"><ele>445.459015</ele><time>2009-07-21T17:35:11Z</time></trkpt>
<trkpt lat="46.46732918" lon="6.37119357"><ele>442.514008</ele><time>2009-07-21T17:35:19Z</time></trkpt>
<trkpt lat="46.46715215" lon="6.37285260"><ele>432.438995</ele><time>2009-07-21T17:35:29Z</time></trkpt>
<trkpt lat="46.46672317" lon="6.37459360"><ele>423.453003</ele><time>2009-07-21T17:35:38Z</time></trkpt>
<trkpt lat="46.46648219" lon="6.37574854"><ele>418.82901</ele><time>2009-07-21T17:35:44Z</time></trkpt>
<trkpt lat="46.46646517" lon="6.37594954"><ele>418.644012</ele><time>2009-07-21T17:35:45Z</time></trkpt>
<trkpt lat="46.46641421" lon="6.37673660"><ele>414.951996</ele><time>2009-07-21T17:35:49Z</time></trkpt>
<trkpt lat="46.46622118" lon="6.37713558"><ele>411.162994</ele><time>2009-07-21T17:35:53Z</time></trkpt>
<trkpt lat="46.46617223" lon="6.37718654"><ele>410.579987</ele><time>2009-07-21T17:35:56Z</time></trkpt>
<trkpt lat="46.46615018" lon="6.37739760"><ele>410.527008</ele><time>2009-07-21T17:35:59Z</time></trkpt>
<trkpt lat="46.46581516" lon="6.37791359"><ele>407.752014</ele><time>2009-07-21T17:36:05Z</time></trkpt>
<trkpt lat="46.46574316" lon="6.37802457"><ele>406.996002</ele><time>2009-07-21T17:36:06Z</time></trkpt>
<trkpt lat="46.46555322" lon="6.37884758"><ele>405.221008</ele><time>2009-07-21T17:36:12Z</time></trkpt>
<trkpt lat="46.46551718" lon="6.37937556"><ele>405.056</ele><time>2009-07-21T17:36:16Z</time></trkpt>
<trkpt lat="46.46566118" lon="6.38136861"><ele>403.802002</ele><time>2009-07-21T17:36:32Z</time></trkpt>
<trkpt lat="46.46565422" lon="6.38161160"><ele>403.835999</ele><time>2009-07-21T17:36:34Z</time></trkpt>
<trkpt lat="46.46527017" lon="6.38275858"><ele>404.062012</ele><time>2009-07-21T17:36:45Z</time></trkpt>
<trkpt lat="46.46473423" lon="6.38426556"><ele>403.390015</ele><time>2009-07-21T17:37:00Z</time></trkpt>
<trkpt lat="46.46437523" lon="6.38553760"><ele>403.059998</ele><time>2009-07-21T17:37:12Z</time></trkpt>
<trkpt lat="46.46432720" lon="6.38618259"><ele>402.552002</ele><time>2009-07-21T17:37:18Z</time></trkpt>
<trkpt lat="46.46444522" lon="6.38669355"><ele>402.526001</ele><time>2009-07-21T17:37:23Z</time></trkpt>
<trkpt lat="46.46540620" lon="6.38828955"><ele>403.817993</ele><time>2009-07-21T17:37:43Z</time></trkpt>
<trkpt lat="46.46561122" lon="6.38857554"><ele>404.429993</ele><time>2009-07-21T17:37:47Z</time></trkpt>
<trkpt lat="46.46561718" lon="6.38891760"><ele>404.049988</ele><time>2009-07-21T17:37:52Z</time></trkpt>
<trkpt lat="46.46547820" lon="6.38910460"><ele>403.959015</ele><time>2009-07-21T17:37:55Z</time></trkpt>
<trkpt lat="46.46519221" lon="6.38926160"><ele>403.752991</ele><time>2009-07-21T17:38:00Z</time></trkpt>
<trkpt lat="46.46410919" lon="6.38939755"><ele>402.463989</ele><time>2009-07-21T17:38:15Z</time></trkpt>
<trkpt lat="46.46389620" lon="6.38979854"><ele>402.20401</ele><time>2009-07-21T17:38:20Z</time></trkpt>
<trkpt lat="46.46378322" lon="6.39023457"><ele>402.377991</ele><time>2009-07-21T17:38:25Z</time></trkpt>
<trkpt lat="46.46363016" lon="6.39076958"><ele>402.34201</ele><time>2009-07-21T17:38:31Z</time></trkpt>
<trkpt lat="46.46345917" lon="6.39100654"><ele>401.425995</ele><time>2009-07-21T17:38:35Z</time></trkpt>
<trkpt lat="46.46332523" lon="6.39107661"><ele>401.527008</ele><time>2009-07-21T17:38:37Z</time></trkpt>
<trkpt lat="46.46320118" lon="6.39117854"><ele>401.496002</ele><time>2009-07-21T17:38:39Z</time></trkpt>
<trkpt lat="46.46297319" lon="6.39122355"><ele>401.295013</ele><time>2009-07-21T17:38:43Z</time></trkpt>
<trkpt lat="46.46242619" lon="6.39117057"><ele>401.046997</ele><time>2009-07-21T17:38:51Z</time></trkpt>
<trkpt lat="46.46228721" lon="6.39120058"><ele>400.921997</ele><time>2009-07-21T17:38:53Z</time></trkpt>
<trkpt lat="46.46207616" lon="6.39129454"><ele>400.57901</ele><time>2009-07-21T17:38:56Z</time></trkpt>
<trkpt lat="46.46170115" lon="6.39160459"><ele>400.223999</ele><time>2009-07-21T17:39:02Z</time></trkpt>
<trkpt lat="46.46159621" lon="6.39168162"><ele>400.100006</ele><time>2009-07-21T17:39:04Z</time></trkpt>
<trkpt lat="46.46124920" lon="6.39172956"><ele>400.29599</ele><time>2009-07-21T17:39:10Z</time></trkpt>
<trkpt lat="46.46081015" lon="6.39167860"><ele>399.661011</ele><time>2009-07-21T17:39:18Z</time></trkpt>
<trkpt lat="46.46062617" lon="6.39160358"><ele>399.533997</ele><time>2009-07-21T17:39:22Z</time></trkpt>
<trkpt lat="46.46046021" lon="6.39144558"><ele>399.066986</ele><time>2009-07-21T17:39:27Z</time></trkpt>
<trkpt lat="46.46050715" lon="6.39130158"><ele>398.855011</ele><time>2009-07-21T17:39:35Z</time></trkpt>
<trkpt lat="46.46051922" lon="6.39151155"><ele>398.697998</ele><time>2009-07-21T17:39:42Z</time></trkpt>
<trkpt lat="46.46064419" lon="6.39159755"><ele>399.218994</ele><time>2009-07-21T17:39:45Z</time></trkpt>
<trkpt lat="46.46101417" lon="6.39185060"><ele>399.10199</ele><time>2009-07-21T17:39:56Z</time></trkpt>
<trkpt lat="46.46110520" lon="6.39198856"><ele>399.197998</ele><time>2009-07-21T17:39:59Z</time></trkpt>
<trkpt lat="46.46127317" lon="6.39212754"><ele>399.576996</ele><time>2009-07-21T17:40:03Z</time></trkpt>
<trkpt lat="46.46163317" lon="6.39249559"><ele>399.623993</ele><time>2009-07-21T17:40:14Z</time></trkpt>
<trkpt lat="46.46174717" lon="6.39258360"><ele>400.141998</ele><time>2009-07-21T17:40:18Z</time></trkpt>
<trkpt lat="46.46184021" lon="6.39271955"><ele>400.122009</ele><time>2009-07-21T17:40:22Z</time></trkpt>
<trkpt lat="46.46208219" lon="6.39300554"><ele>400.093994</ele><time>2009-07-21T17:40:31Z</time></trkpt>
<trkpt lat="46.46211119" lon="6.39303454"><ele>400.108002</ele><time>2009-07-21T17:40:32Z</time></trkpt>
<trkpt lat="46.46226718" lon="6.39313856"><ele>400.338989</ele><time>2009-07-21T17:40:37Z</time></trkpt>
<trkpt lat="46.46231420" lon="6.39318860"><ele>399.825989</ele><time>2009-07-21T17:40:39Z</time></trkpt>
<trkpt lat="46.46242216" lon="6.39325859"><ele>399.408997</ele><time>2009-07-21T17:40:43Z</time></trkpt>
<trkpt lat="46.46260321" lon="6.39335758"><ele>399.790985</ele><time>2009-07-21T17:40:51Z</time></trkpt>
<trkpt lat="46.46292818" lon="6.39352455"><ele>399.946014</ele><time>2009-07-21T17:41:01Z</time></trkpt>
<trkpt lat="46.46305919" lon="6.39356059"><ele>400.738007</ele><time>2009-07-21T17:41:05Z</time></trkpt>
<trkpt lat="46.46324619" lon="6.39368154"><ele>401.347992</ele><time>2009-07-21T17:41:11Z</time></trkpt>
<trkpt lat="46.46347216" lon="6.39383661"><ele>401.515015</ele><time>2009-07-21T17:41:16Z</time></trkpt>
<trkpt lat="46.46355716" lon="6.39391858"><ele>401.487</ele><time>2009-07-21T17:41:18Z</time></trkpt>
<trkpt lat="46.46376218" lon="6.39414355"><ele>401.667999</ele><time>2009-07-21T17:41:23Z</time></trkpt>
<trkpt lat="46.46399117" lon="6.39434958"><ele>401.65799</ele><time>2009-07-21T17:41:28Z</time></trkpt>
<trkpt lat="46.46409117" lon="6.39440658"><ele>402.01001</ele><time>2009-07-21T17:41:30Z</time></trkpt>
<trkpt lat="46.46429820" lon="6.39482358"><ele>401.407013</ele><time>2009-07-21T17:41:39Z</time></trkpt>
<trkpt lat="46.46445318" lon="6.39508559"><ele>401.537994</ele><time>2009-07-21T17:41:47Z</time></trkpt>
<trkpt lat="46.46447221" lon="6.39521459"><ele>401.502991</ele><time>2009-07-21T17:41:49Z</time></trkpt>
<trkpt lat="46.46448822" lon="6.39559454"><ele>401.63501</ele><time>2009-07-21T17:41:54Z</time></trkpt>
<trkpt lat="46.46447221" lon="6.39629661"><ele>401.777008</ele><time>2009-07-21T17:42:05Z</time></trkpt>
<trkpt lat="46.46444622" lon="6.39674060"><ele>401.949005</ele><time>2009-07-21T17:42:13Z</time></trkpt>
<trkpt lat="46.46443315" lon="6.39693062"><ele>401.601013</ele><time>2009-07-21T17:42:16Z</time></trkpt>
<trkpt lat="46.46444019" lon="6.39716062"><ele>401.882996</ele><time>2009-07-21T17:42:20Z</time></trkpt>
<trkpt lat="46.46445218" lon="6.39754560"><ele>402.148987</ele><time>2009-07-21T17:42:25Z</time></trkpt>
<trkpt lat="46.46458419" lon="6.39804055"><ele>401.851013</ele><time>2009-07-21T17:42:32Z</time></trkpt>
<trkpt lat="46.46494419" lon="6.39837055"><ele>402.891998</ele><time>2009-07-21T17:42:40Z</time></trkpt>
<trkpt lat="46.46519121" lon="6.39856358"><ele>402.894989</ele><time>2009-07-21T17:42:45Z</time></trkpt>
<trkpt lat="46.46542917" lon="6.39899558"><ele>402.884003</ele><time>2009-07-21T17:42:52Z</time></trkpt>
<trkpt lat="46.46549623" lon="6.39937160"><ele>403.053009</ele><time>2009-07-21T17:42:57Z</time></trkpt>
<trkpt lat="46.46553420" lon="6.39951761"><ele>402.959015</ele><time>2009-07-21T17:42:59Z</time></trkpt>
<trkpt lat="46.46550922" lon="6.40003360"><ele>402.928986</ele><time>2009-07-21T17:43:07Z</time></trkpt>
<trkpt lat="46.46550721" lon="6.40017861"><ele>403.087006</ele><time>2009-07-21T17:43:09Z</time></trkpt>
<trkpt lat="46.46546915" lon="6.40035454"><ele>402.722992</ele><time>2009-07-21T17:43:12Z</time></trkpt>
<trkpt lat="46.46546018" lon="6.40060659"><ele>402.834015</ele><time>2009-07-21T17:43:16Z</time></trkpt>
<trkpt lat="46.46548516" lon="6.40073659"><ele>402.985992</ele><time>2009-07-21T17:43:18Z</time></trkpt>
<trkpt lat="46.46573922" lon="6.40107354"><ele>403.207001</ele><time>2009-07-21T17:43:26Z</time></trkpt>
<trkpt lat="46.46587115" lon="6.40097455"><ele>403.593994</ele><time>2009-07-21T17:43:29Z</time></trkpt>
<trkpt lat="46.46606217" lon="6.40097254"><ele>403.557007</ele><time>2009-07-21T17:43:33Z</time></trkpt>
<trkpt lat="46.46627616" lon="6.40116457"><ele>403.536011</ele><time>2009-07-21T17:43:38Z</time></trkpt>
<trkpt lat="46.46667019" lon="6.40128259"><ele>403.106995</ele><time>2009-07-21T17:43:47Z</time></trkpt>
<trkpt lat="46.46700019" lon="6.40138459"><ele>405.404999</ele><time>2009-07-21T17:43:55Z</time></trkpt>
<trkpt lat="46.46707621" lon="6.40143061"><ele>406.028992</ele><time>2009-07-21T17:43:57Z</time></trkpt>
<trkpt lat="46.46712617" lon="6.40153354"><ele>406.528992</ele><time>2009-07-21T17:43:59Z</time></trkpt>
<trkpt lat="46.46720521" lon="6.40178257"><ele>406.919006</ele><time>2009-07-21T17:44:03Z</time></trkpt>
<trkpt lat="46.46723916" lon="6.40199061"><ele>406.75</ele><time>2009-07-21T17:44:06Z</time></trkpt>
<trkpt lat="46.46717621" lon="6.40238154"><ele>404.679993</ele><time>2009-07-21T17:44:13Z</time></trkpt>
<trkpt lat="46.46717219" lon="6.40246561"><ele>404.565002</ele><time>2009-07-21T17:44:14Z</time></trkpt>
<trkpt lat="46.46714821" lon="6.40293759"><ele>404.230988</ele><time>2009-07-21T17:44:21Z</time></trkpt>
<trkpt lat="46.46701922" lon="6.40312459"><ele>404.514008</ele><time>2009-07-21T17:44:27Z</time></trkpt>
<trkpt lat="46.46693322" lon="6.40362357"><ele>404.582001</ele><time>2009-07-21T17:44:35Z</time></trkpt>
<trkpt lat="46.46735818" lon="6.40394954"><ele>405.295013</ele><time>2009-07-21T17:44:45Z</time></trkpt>
<trkpt lat="46.46745415" lon="6.40388760"><ele>405.059998</ele><time>2009-07-21T17:44:47Z</time></trkpt>
<trkpt lat="46.46787216" lon="6.40389657"><ele>405.528992</ele><time>2009-07-21T17:44:56Z</time></trkpt>
<trkpt lat="46.46793217" lon="6.40398256"><ele>405.369995</ele><time>2009-07-21T17:44:58Z</time></trkpt>
<trkpt lat="46.46803116" lon="6.40427861"><ele>405.562012</ele><time>2009-07-21T17:45:03Z</time></trkpt>
<trkpt lat="46.46806721" lon="6.40457357"><ele>405.842987</ele><time>2009-07-21T17:45:07Z</time></trkpt>
<trkpt lat="46.46811616" lon="6.40510658"><ele>405.609009</ele><time>2009-07-21T17:45:14Z</time></trkpt>
<trkpt lat="46.46817315" lon="6.40540355"><ele>405.94101</ele><time>2009-07-21T17:45:18Z</time></trkpt>
<trkpt lat="46.46835521" lon="6.40596556"><ele>406.037994</ele><time>2009-07-21T17:45:26Z</time></trkpt>
<trkpt lat="46.46849317" lon="6.40615155"><ele>406.220001</ele><time>2009-07-21T17:45:30Z</time></trkpt>
<trkpt lat="46.46857817" lon="6.40625155"><ele>406.152008</ele><time>2009-07-21T17:45:32Z</time></trkpt>
<trkpt lat="46.46866919" lon="6.40633562"><ele>406.378998</ele><time>2009-07-21T17:45:34Z</time></trkpt>
<trkpt lat="46.46882619" lon="6.40642656"><ele>406.677002</ele><time>2009-07-21T17:45:37Z</time></trkpt>
<trkpt lat="46.46910815" lon="6.40637862"><ele>407.20401</ele><time>2009-07-21T17:45:45Z</time></trkpt>
<trkpt lat="46.46921318" lon="6.40640762"><ele>407.166992</ele><time>2009-07-21T17:45:48Z</time></trkpt>
<trkpt lat="46.46949716" lon="6.40626454"><ele>408.391998</ele><time>2009-07-21T17:45:56Z</time></trkpt>
<trkpt lat="46.46966522" lon="6.40619656"><ele>408.313995</ele><time>2009-07-21T17:46:00Z</time></trkpt>
<trkpt lat="46.46993821" lon="6.40599959"><ele>408.484985</ele><time>2009-07-21T17:46:06Z</time></trkpt>
<trkpt lat="46.47002019" lon="6.40594561"><ele>408.832001</ele><time>2009-07-21T17:46:08Z</time></trkpt>
<trkpt lat="46.47023519" lon="6.40576757"><ele>409.455994</ele><time>2009-07-21T17:46:14Z</time></trkpt>
<trkpt lat="46.47028816" lon="6.40561662"><ele>408.983002</ele><time>2009-07-21T17:46:17Z</time></trkpt>
<trkpt lat="46.47054817" lon="6.40548561"><ele>409.174988</ele><time>2009-07-21T17:46:23Z</time></trkpt>
<trkpt lat="46.47083516" lon="6.40509258"><ele>409.608002</ele><time>2009-07-21T17:46:31Z</time></trkpt>
<trkpt lat="46.47149717" lon="6.40395356"><ele>410.346008</ele><time>2009-07-21T17:46:49Z</time></trkpt>
<trkpt lat="46.47160320" lon="6.40378861"><ele>412.572998</ele><time>2009-07-21T17:46:53Z</time></trkpt>
<trkpt lat="46.47185415" lon="6.40400260"><ele>413.661987</ele><time>2009-07-21T17:47:01Z</time></trkpt>
<trkpt lat="46.47263920" lon="6.40518654"><ele>414.796997</ele><time>2009-07-21T17:47:21Z</time></trkpt>
<trkpt lat="46.47283022" lon="6.40549558"><ele>415.118011</ele><time>2009-07-21T17:47:26Z</time></trkpt>
<trkpt lat="46.47313918" lon="6.40608257"><ele>416.217987</ele><time>2009-07-21T17:47:35Z</time></trkpt>
<trkpt lat="46.47345115" lon="6.40613956"><ele>416.734009</ele><time>2009-07-21T17:47:41Z</time></trkpt>
<trkpt lat="46.47386623" lon="6.40582155"><ele>419.528992</ele><time>2009-07-21T17:47:52Z</time></trkpt>
<trkpt lat="46.47390017" lon="6.40578761"><ele>420.188995</ele><time>2009-07-21T17:47:54Z</time></trkpt>
<trkpt lat="46.47403521" lon="6.40574461"><ele>421.992004</ele><time>2009-07-21T17:48:01Z</time></trkpt>
<trkpt lat="46.47435020" lon="6.40562257"><ele>424.229004</ele><time>2009-07-21T17:48:15Z</time></trkpt>
<trkpt lat="46.47450920" lon="6.40563455"><ele>425.735992</ele><time>2009-07-21T17:48:23Z</time></trkpt>
<trkpt lat="46.47494020" lon="6.40599556"><ele>424.617004</ele><time>2009-07-21T17:48:34Z</time></trkpt>
<trkpt lat="46.47514220" lon="6.40648456"><ele>422.072998</ele><time>2009-07-21T17:48:39Z</time></trkpt>
<trkpt lat="46.47547916" lon="6.40661457"><ele>420.779999</ele><time>2009-07-21T17:48:43Z</time></trkpt>
<trkpt lat="46.47624719" lon="6.40625255"><ele>418.972992</ele><time>2009-07-21T17:48:53Z</time></trkpt>
<trkpt lat="46.47656822" lon="6.40632455"><ele>417.619995</ele><time>2009-07-21T17:48:57Z</time></trkpt>
<trkpt lat="46.47678221" lon="6.40634056"><ele>417.28299</ele><time>2009-07-21T17:49:00Z</time></trkpt>
<trkpt lat="46.47678522" lon="6.40660660"><ele>417.209015</ele><time>2009-07-21T17:49:07Z</time></trkpt>
<trkpt lat="46.47678120" lon="6.40691455"><ele>416.847992</ele><time>2009-07-21T17:49:15Z</time></trkpt>
<trkpt lat="46.47694021" lon="6.40724061"><ele>420.319</ele><time>2009-07-21T17:49:22Z</time></trkpt>
<trkpt lat="46.47709921" lon="6.40744555"><ele>422.828003</ele><time>2009-07-21T17:49:28Z</time></trkpt>
<trkpt lat="46.47727422" lon="6.40762861"><ele>423.653015</ele><time>2009-07-21T17:49:35Z</time></trkpt>
<trkpt lat="46.47739719" lon="6.40770555"><ele>423.496002</ele><time>2009-07-21T17:49:38Z</time></trkpt>
<trkpt lat="46.47774923" lon="6.40781854"><ele>424.365997</ele><time>2009-07-21T17:49:46Z</time></trkpt>
<trkpt lat="46.47780119" lon="6.40782357"><ele>424.221008</ele><time>2009-07-21T17:49:47Z</time></trkpt>
<trkpt lat="46.47813421" lon="6.40755661"><ele>423.363007</ele><time>2009-07-21T17:49:54Z</time></trkpt>
<trkpt lat="46.47833923" lon="6.40727255"><ele>419.157013</ele><time>2009-07-21T17:50:01Z</time></trkpt>
<trkpt lat="46.47847116" lon="6.40709057"><ele>417.640991</ele><time>2009-07-21T17:50:05Z</time></trkpt>
<trkpt lat="46.47863218" lon="6.40700256"><ele>417.97699</ele><time>2009-07-21T17:50:08Z</time></trkpt>
<trkpt lat="46.47873921" lon="6.40696761"><ele>418.477997</ele><time>2009-07-21T17:50:10Z</time></trkpt>
<trkpt lat="46.47891917" lon="6.40686762"><ele>418.411987</ele><time>2009-07-21T17:50:14Z</time></trkpt>
<trkpt lat="46.47901716" lon="6.40685060"><ele>418.270996</ele><time>2009-07-21T17:50:17Z</time></trkpt>
<trkpt lat="46.47932821" lon="6.40700156"><ele>418.791992</ele><time>2009-07-21T17:50:25Z</time></trkpt>
<trkpt lat="46.47950121" lon="6.40719661"><ele>419.140991</ele><time>2009-07-21T17:50:30Z</time></trkpt>
<trkpt lat="46.47986817" lon="6.40749961"><ele>418.722992</ele><time>2009-07-21T17:50:40Z</time></trkpt>
<trkpt lat="46.48001318" lon="6.40752258"><ele>419.088013</ele><time>2009-07-21T17:50:43Z</time></trkpt>
<trkpt lat="46.48033722" lon="6.40750657"><ele>421.028015</ele><time>2009-07-21T17:50:53Z</time></trkpt>
<trkpt lat="46.48038919" lon="6.40755359"><ele>423.075989</ele><time>2009-07-21T17:51:00Z</time></trkpt>
<trkpt lat="46.48055515" lon="6.40734857"><ele>425.575989</ele><time>2009-07-21T17:51:14Z</time></trkpt>
<trkpt lat="46.48134917" lon="6.40685161"><ele>426.627991</ele><time>2009-07-21T17:51:32Z</time></trkpt>
<trkpt lat="46.48220723" lon="6.40630460"><ele>427.582001</ele><time>2009-07-21T17:51:51Z</time></trkpt>
<trkpt lat="46.48280117" lon="6.40592759"><ele>428.509003</ele><time>2009-07-21T17:52:04Z</time></trkpt>
<trkpt lat="46.48299915" lon="6.40604460"><ele>429.338013</ele><time>2009-07-21T17:52:09Z</time></trkpt>
<trkpt lat="46.48307417" lon="6.40631055"><ele>430.662994</ele><time>2009-07-21T17:52:13Z</time></trkpt>
<trkpt lat="46.48330316" lon="6.40646260"><ele>432.063995</ele><time>2009-07-21T17:52:19Z</time></trkpt>
<trkpt lat="46.48352721" lon="6.40654860"><ele>433.18399</ele><time>2009-07-21T17:52:24Z</time></trkpt>
<trkpt lat="46.48371220" lon="6.40660862"><ele>433.713989</ele><time>2009-07-21T17:52:28Z</time></trkpt>
<trkpt lat="46.48397019" lon="6.40659956"><ele>433.713989</ele><time>2009-07-21T17:52:33Z</time></trkpt>
<trkpt lat="46.48417622" lon="6.40664156"><ele>433.933014</ele><time>2009-07-21T17:52:37Z</time></trkpt>
<trkpt lat="46.48438619" lon="6.40677257"><ele>433.667999</ele><time>2009-07-21T17:52:41Z</time></trkpt>
<trkpt lat="46.48449121" lon="6.40682261"><ele>433.868988</ele><time>2009-07-21T17:52:43Z</time></trkpt>
<trkpt lat="46.48473018" lon="6.40684959"><ele>434.84201</ele><time>2009-07-21T17:52:48Z</time></trkpt>
<trkpt lat="46.48494517" lon="6.40676259"><ele>434.417999</ele><time>2009-07-21T17:52:58Z</time></trkpt>
<trkpt lat="46.48493721" lon="6.40672655"><ele>434.282013</ele><time>2009-07-21T17:53:11Z</time></trkpt>
<trkpt lat="46.48493721" lon="6.40671959"><ele>434.307007</ele><time>2009-07-21T17:53:19Z</time></trkpt>
<trkpt lat="46.48500821" lon="6.40665254"><ele>434.316986</ele><time>2009-07-21T17:53:23Z</time></trkpt>
<trkpt lat="46.48530015" lon="6.40634760"><ele>435.988007</ele><time>2009-07-21T17:53:31Z</time></trkpt>
<trkpt lat="46.48544817" lon="6.40620058"><ele>437.714996</ele><time>2009-07-21T17:53:35Z</time></trkpt>
<trkpt lat="46.48576216" lon="6.40605859"><ele>440.523987</ele><time>2009-07-21T17:53:44Z</time></trkpt>
<trkpt lat="46.48617421" lon="6.40615557"><ele>443.983002</ele><time>2009-07-21T17:53:55Z</time></trkpt>
<trkpt lat="46.48629122" lon="6.40619354"><ele>445.057007</ele><time>2009-07-21T17:54:04Z</time></trkpt>
<trkpt lat="46.48629718" lon="6.40618357"><ele>444.362</ele><time>2009-07-21T17:54:21Z</time></trkpt>
<trkpt lat="46.48631419" lon="6.40617955"><ele>445.841003</ele><time>2009-07-21T17:54:29Z</time></trkpt>
<trkpt lat="46.48656716" lon="6.40614761"><ele>446.582001</ele><time>2009-07-21T17:54:39Z</time></trkpt>
<trkpt lat="46.48669121" lon="6.40611459"><ele>446.636993</ele><time>2009-07-21T17:54:42Z</time></trkpt>
<trkpt lat="46.48686916" lon="6.40598861"><ele>447.072998</ele><time>2009-07-21T17:54:46Z</time></trkpt>
<trkpt lat="46.48707217" lon="6.40578660"><ele>446.834015</ele><time>2009-07-21T17:54:51Z</time></trkpt>
<trkpt lat="46.48741415" lon="6.40539257"><ele>444.052002</ele><time>2009-07-21T17:54:58Z</time></trkpt>
<trkpt lat="46.48760919" lon="6.40513256"><ele>442.382996</ele><time>2009-07-21T17:55:01Z</time></trkpt>
<trkpt lat="46.48787415" lon="6.40497356"><ele>439.980988</ele><time>2009-07-21T17:55:04Z</time></trkpt>
<trkpt lat="46.48797221" lon="6.40494858"><ele>438.669006</ele><time>2009-07-21T17:55:05Z</time></trkpt>
<trkpt lat="46.48843917" lon="6.40490156"><ele>434.414001</ele><time>2009-07-21T17:55:10Z</time></trkpt>
<trkpt lat="46.48849617" lon="6.40496761"><ele>434.035004</ele><time>2009-07-21T17:55:18Z</time></trkpt>
<trkpt lat="46.48846515" lon="6.40506760"><ele>434.647003</ele><time>2009-07-21T17:55:23Z</time></trkpt>
<trkpt lat="46.48881518" lon="6.40549860"><ele>435.067993</ele><time>2009-07-21T17:55:37Z</time></trkpt>
<trkpt lat="46.48909321" lon="6.40549860"><ele>434.652008</ele><time>2009-07-21T17:55:47Z</time></trkpt>
<trkpt lat="46.48933520" lon="6.40548058"><ele>435.230011</ele><time>2009-07-21T17:55:55Z</time></trkpt>
<trkpt lat="46.48940116" lon="6.40542962"><ele>435.893005</ele><time>2009-07-21T17:55:59Z</time></trkpt>
<trkpt lat="46.48942119" lon="6.40540154"><ele>435.927002</ele><time>2009-07-21T17:56:01Z</time></trkpt>
<trkpt lat="46.48963317" lon="6.40540556"><ele>436.701996</ele><time>2009-07-21T17:56:14Z</time></trkpt>
<trkpt lat="46.48989821" lon="6.40517456"><ele>436.660004</ele><time>2009-07-21T17:56:25Z</time></trkpt>
<trkpt lat="46.49019116" lon="6.40491161"><ele>437.364014</ele><time>2009-07-21T17:56:35Z</time></trkpt>
<trkpt lat="46.49058016" lon="6.40446260"><ele>438.194</ele><time>2009-07-21T17:56:49Z</time></trkpt>
<trkpt lat="46.49072617" lon="6.40439060"><ele>438.833008</ele><time>2009-07-21T17:56:54Z</time></trkpt>
<trkpt lat="46.49088920" lon="6.40441256"><ele>440.438995</ele><time>2009-07-21T17:57:01Z</time></trkpt>
<trkpt lat="46.49127217" lon="6.40430762"><ele>442.257996</ele><time>2009-07-21T17:57:15Z</time></trkpt>
<trkpt lat="46.49152220" lon="6.40383555"><ele>443.26001</ele><time>2009-07-21T17:57:27Z</time></trkpt>
<trkpt lat="46.49156218" lon="6.40375156"><ele>442.562988</ele><time>2009-07-21T17:57:29Z</time></trkpt>
<trkpt lat="46.49194415" lon="6.40351754"><ele>441.837006</ele><time>2009-07-21T17:57:38Z</time></trkpt>
<trkpt lat="46.49226719" lon="6.40349658"><ele>443.895996</ele><time>2009-07-21T17:57:49Z</time></trkpt>
<trkpt lat="46.49259618" lon="6.40335459"><ele>445.421997</ele><time>2009-07-21T17:58:02Z</time></trkpt>
<trkpt lat="46.49266315" lon="6.40333255"><ele>444.274994</ele><time>2009-07-21T17:58:13Z</time></trkpt>
<trkpt lat="46.49269022" lon="6.40329458"><ele>444.835999</ele><time>2009-07-21T17:58:22Z</time></trkpt>
<trkpt lat="46.49307420" lon="6.40330656"><ele>454.397003</ele><time>2009-07-21T17:59:20Z</time></trkpt>
<trkpt lat="46.49309121" lon="6.40335459"><ele>456.13501</ele><time>2009-07-21T17:59:27Z</time></trkpt>
<trkpt lat="46.49313320" lon="6.40334755"><ele>456.658997</ele><time>2009-07-21T17:59:31Z</time></trkpt>
<trkpt lat="46.49346915" lon="6.40316357"><ele>460.904999</ele><time>2009-07-21T17:59:49Z</time></trkpt>
<trkpt lat="46.49358415" lon="6.40309861"><ele>459.049011</ele><time>2009-07-21T18:00:24Z</time></trkpt>
<trkpt lat="46.49369420" lon="6.40305561"><ele>459.996002</ele><time>2009-07-21T18:00:31Z</time></trkpt>
<trkpt lat="46.49389621" lon="6.40294656"><ele>462.075989</ele><time>2009-07-21T18:00:38Z</time></trkpt>
<trkpt lat="46.49379320" lon="6.40306760"><ele>462.476013</ele><time>2009-07-21T18:02:51Z</time></trkpt>
<trkpt lat="46.49351818" lon="6.40338058"><ele>467.243988</ele><time>2009-07-21T18:03:08Z</time></trkpt>
<trkpt lat="46.49332616" lon="6.40354059"><ele>471.384003</ele><time>2009-07-21T18:03:20Z</time></trkpt>
<trkpt lat="46.49333219" lon="6.40364461"><ele>472.223999</ele><time>2009-07-21T18:03:24Z</time></trkpt>
<trkpt lat="46.49340218" lon="6.40371258"><ele>473.589996</ele><time>2009-07-21T18:03:29Z</time></trkpt>
<trkpt lat="46.49370720" lon="6.40370755"><ele>479.157013</ele><time>2009-07-21T18:03:47Z</time></trkpt>
<trkpt lat="46.49377115" lon="6.40369557"><ele>480.475006</ele><time>2009-07-21T18:03:51Z</time></trkpt>
<trkpt lat="46.49403216" lon="6.40355961"><ele>483.575012</ele><time>2009-07-21T18:04:07Z</time></trkpt>
<trkpt lat="46.49452921" lon="6.40330254"><ele>485.733002</ele><time>2009-07-21T18:04:30Z</time></trkpt>
<trkpt lat="46.49459819" lon="6.40328854"><ele>486.36499</ele><time>2009-07-21T18:04:33Z</time></trkpt>
<trkpt lat="46.49465620" lon="6.40338460"><ele>486.953003</ele><time>2009-07-21T18:04:37Z</time></trkpt>
<trkpt lat="46.49473323" lon="6.40357755"><ele>487.744995</ele><time>2009-07-21T18:04:43Z</time></trkpt>
<trkpt lat="46.49482115" lon="6.40355358"><ele>488.369995</ele><time>2009-07-21T18:04:47Z</time></trkpt>
<trkpt lat="46.49530219" lon="6.40308562"><ele>489.964996</ele><time>2009-07-21T18:05:04Z</time></trkpt>
<trkpt lat="46.49584617" lon="6.40258756"><ele>492.347992</ele><time>2009-07-21T18:05:21Z</time></trkpt>
<trkpt lat="46.49642218" lon="6.40222656"><ele>496.569</ele><time>2009-07-21T18:05:39Z</time></trkpt>
<trkpt lat="46.49695619" lon="6.40150655"><ele>499.130005</ele><time>2009-07-21T18:05:57Z</time></trkpt>
<trkpt lat="46.49732223" lon="6.40081261"><ele>503.052002</ele><time>2009-07-21T18:06:13Z</time></trkpt>
<trkpt lat="46.49750319" lon="6.40045160"><ele>506.743988</ele><time>2009-07-21T18:06:22Z</time></trkpt>
<trkpt lat="46.49752222" lon="6.40036561"><ele>507.351013</ele><time>2009-07-21T18:06:24Z</time></trkpt>
<trkpt lat="46.49739817" lon="6.40009160"><ele>506.131012</ele><time>2009-07-21T18:06:29Z</time></trkpt>
<trkpt lat="46.49729121" lon="6.39969757"><ele>504.105011</ele><time>2009-07-21T18:06:33Z</time></trkpt>
<trkpt lat="46.49728920" lon="6.39943656"><ele>502.494995</ele><time>2009-07-21T18:06:35Z</time></trkpt>
<trkpt lat="46.49710321" lon="6.39842260"><ele>494.817993</ele><time>2009-07-21T18:06:42Z</time></trkpt>
<trkpt lat="46.49707220" lon="6.39796461"><ele>491.345001</ele><time>2009-07-21T18:06:45Z</time></trkpt>
<trkpt lat="46.49710019" lon="6.39780954"><ele>489.596008</ele><time>2009-07-21T18:06:46Z</time></trkpt>
<trkpt lat="46.49716817" lon="6.39752456"><ele>486.690002</ele><time>2009-07-21T18:06:48Z</time></trkpt>
<trkpt lat="46.49719516" lon="6.39723354"><ele>486.062012</ele><time>2009-07-21T18:06:50Z</time></trkpt>
<trkpt lat="46.49690221" lon="6.39667958"><ele>478.412994</ele><time>2009-07-21T18:06:55Z</time></trkpt>
<trkpt lat="46.49662519" lon="6.39644958"><ele>471.817993</ele><time>2009-07-21T18:07:00Z</time></trkpt>
<trkpt lat="46.49670817" lon="6.39628161"><ele>470.662994</ele><time>2009-07-21T18:07:02Z</time></trkpt>
<trkpt lat="46.49678017" lon="6.39622754"><ele>469.743011</ele><time>2009-07-21T18:07:03Z</time></trkpt>
<trkpt lat="46.49712022" lon="6.39580862"><ele>466.083008</ele><time>2009-07-21T18:07:08Z</time></trkpt>
<trkpt lat="46.49687321" lon="6.39531559"><ele>464.962006</ele><time>2009-07-21T18:07:14Z</time></trkpt>
<trkpt lat="46.49670222" lon="6.39522054"><ele>465.996002</ele><time>2009-07-21T18:07:17Z</time></trkpt>
<trkpt lat="46.49640818" lon="6.39497059"><ele>470.554993</ele><time>2009-07-21T18:07:30Z</time></trkpt>
<trkpt lat="46.49628019" lon="6.39486255"><ele>472.940002</ele><time>2009-07-21T18:07:37Z</time></trkpt>
<trkpt lat="46.49616519" lon="6.39473858"><ele>475.056</ele><time>2009-07-21T18:07:44Z</time></trkpt>
<trkpt lat="46.49592320" lon="6.39445854"><ele>479.766998</ele><time>2009-07-21T18:08:00Z</time></trkpt>
<trkpt lat="46.49571315" lon="6.39420457"><ele>484.188995</ele><time>2009-07-21T18:08:14Z</time></trkpt>
<trkpt lat="46.49565322" lon="6.39413659"><ele>485.079987</ele><time>2009-07-21T18:08:18Z</time></trkpt>
<trkpt lat="46.49540017" lon="6.39392059"><ele>489.313995</ele><time>2009-07-21T18:08:33Z</time></trkpt>
<trkpt lat="46.49509323" lon="6.39378062"><ele>494.03299</ele><time>2009-07-21T18:08:48Z</time></trkpt>
<trkpt lat="46.49484823" lon="6.39352555"><ele>499.947998</ele><time>2009-07-21T18:09:05Z</time></trkpt>
<trkpt lat="46.49463222" lon="6.39330662"><ele>504.352997</ele><time>2009-07-21T18:09:20Z</time></trkpt>
<trkpt lat="46.49455318" lon="6.39315457"><ele>506.955994</ele><time>2009-07-21T18:09:27Z</time></trkpt>
<trkpt lat="46.49445319" lon="6.39275257"><ele>510.891998</ele><time>2009-07-21T18:09:41Z</time></trkpt>
<trkpt lat="46.49457120" lon="6.39246960"><ele>512.080017</ele><time>2009-07-21T18:09:52Z</time></trkpt>
<trkpt lat="46.49473222" lon="6.39209158"><ele>513.596008</ele><time>2009-07-21T18:10:06Z</time></trkpt>
<trkpt lat="46.49491922" lon="6.39171959"><ele>515.393982</ele><time>2009-07-21T18:10:20Z</time></trkpt>
<trkpt lat="46.49498820" lon="6.39170559"><ele>515.963013</ele><time>2009-07-21T18:10:24Z</time></trkpt>
<trkpt lat="46.49518417" lon="6.39161155"><ele>517.195007</ele><time>2009-07-21T18:10:32Z</time></trkpt>
<trkpt lat="46.49535717" lon="6.39114560"><ele>518.963013</ele><time>2009-07-21T18:10:47Z</time></trkpt>
<trkpt lat="46.49544921" lon="6.39069457"><ele>521.926025</ele><time>2009-07-21T18:11:00Z</time></trkpt>
<trkpt lat="46.49558223" lon="6.39042157"><ele>524.573975</ele><time>2009-07-21T18:11:09Z</time></trkpt>
<trkpt lat="46.49578121" lon="6.38995562"><ele>527.758972</ele><time>2009-07-21T18:11:24Z</time></trkpt>
<trkpt lat="46.49594617" lon="6.38950056"><ele>531.356018</ele><time>2009-07-21T18:11:39Z</time></trkpt>
<trkpt lat="46.49611222" lon="6.38897661"><ele>534.799011</ele><time>2009-07-21T18:11:55Z</time></trkpt>
<trkpt lat="46.49617818" lon="6.38837362"><ele>538.728027</ele><time>2009-07-21T18:12:12Z</time></trkpt>
<trkpt lat="46.49622018" lon="6.38763458"><ele>542.914001</ele><time>2009-07-21T18:12:32Z</time></trkpt>
<trkpt lat="46.49620517" lon="6.38681559"><ele>545.916016</ele><time>2009-07-21T18:12:52Z</time></trkpt>
<trkpt lat="46.49629218" lon="6.38650060"><ele>545.692993</ele><time>2009-07-21T18:13:01Z</time></trkpt>
<trkpt lat="46.49633920" lon="6.38654754"><ele>544.340027</ele><time>2009-07-21T18:13:04Z</time></trkpt>
<trkpt lat="46.49637415" lon="6.38661359"><ele>543.323975</ele><time>2009-07-21T18:13:06Z</time></trkpt>
<trkpt lat="46.49638019" lon="6.38636657"><ele>541.825989</ele><time>2009-07-21T18:13:14Z</time></trkpt>
<trkpt lat="46.49636719" lon="6.38629558"><ele>541.669983</ele><time>2009-07-21T18:13:15Z</time></trkpt>
<trkpt lat="46.49632721" lon="6.38609961"><ele>541.994995</ele><time>2009-07-21T18:13:18Z</time></trkpt>
<trkpt lat="46.49609118" lon="6.38596357"><ele>542.588989</ele><time>2009-07-21T18:13:25Z</time></trkpt>
<trkpt lat="46.49607416" lon="6.38590054"><ele>542.68103</ele><time>2009-07-21T18:13:26Z</time></trkpt>
<trkpt lat="46.49589621" lon="6.38542059"><ele>543.570007</ele><time>2009-07-21T18:13:35Z</time></trkpt>
<trkpt lat="46.49581918" lon="6.38513661"><ele>543.452026</ele><time>2009-07-21T18:13:39Z</time></trkpt>
<trkpt lat="46.49576621" lon="6.38492455"><ele>543.771973</ele><time>2009-07-21T18:13:42Z</time></trkpt>
<trkpt lat="46.49568918" lon="6.38454954"><ele>544.031982</ele><time>2009-07-21T18:13:47Z</time></trkpt>
<trkpt lat="46.49571919" lon="6.38390556"><ele>544.492004</ele><time>2009-07-21T18:13:56Z</time></trkpt>
<trkpt lat="46.49576521" lon="6.38377656"><ele>544.734985</ele><time>2009-07-21T18:13:58Z</time></trkpt>
<trkpt lat="46.49580519" lon="6.38348957"><ele>545.059021</ele><time>2009-07-21T18:14:02Z</time></trkpt>
<trkpt lat="46.49587216" lon="6.38325454"><ele>545.143005</ele><time>2009-07-21T18:14:05Z</time></trkpt>
<trkpt lat="46.49591122" lon="6.38295555"><ele>545.278992</ele><time>2009-07-21T18:14:09Z</time></trkpt>
<trkpt lat="46.49598322" lon="6.38263755"><ele>545.145996</ele><time>2009-07-21T18:14:13Z</time></trkpt>
<trkpt lat="46.49599923" lon="6.38240956"><ele>545.205994</ele><time>2009-07-21T18:14:16Z</time></trkpt>
<trkpt lat="46.49598917" lon="6.38225558"><ele>545.208984</ele><time>2009-07-21T18:14:18Z</time></trkpt>
<trkpt lat="46.49585523" lon="6.38152359"><ele>545.663025</ele><time>2009-07-21T18:14:29Z</time></trkpt>
<trkpt lat="46.49575917" lon="6.38124657"><ele>546.054016</ele><time>2009-07-21T18:14:33Z</time></trkpt>
<trkpt lat="46.49576621" lon="6.38095655"><ele>546.494995</ele><time>2009-07-21T18:14:37Z</time></trkpt>
<trkpt lat="46.49577619" lon="6.38080258"><ele>546.299988</ele><time>2009-07-21T18:14:39Z</time></trkpt>
<trkpt lat="46.49590015" lon="6.38039061"><ele>545.71698</ele><time>2009-07-21T18:14:44Z</time></trkpt>
<trkpt lat="46.49597718" lon="6.38025055"><ele>545.83197</ele><time>2009-07-21T18:14:46Z</time></trkpt>
<trkpt lat="46.49623216" lon="6.38043755"><ele>546.513977</ele><time>2009-07-21T18:14:52Z</time></trkpt>
<trkpt lat="46.49624515" lon="6.38049454"><ele>546.890991</ele><time>2009-07-21T18:14:53Z</time></trkpt>
<trkpt lat="46.49637314" lon="6.38124062"><ele>551.749023</ele><time>2009-07-21T18:15:09Z</time></trkpt>
<trkpt lat="46.49654715" lon="6.38144354"><ele>554.648987</ele><time>2009-07-21T18:15:19Z</time></trkpt>
<trkpt lat="46.49686315" lon="6.38143457"><ele>558.564026</ele><time>2009-07-21T18:15:34Z</time></trkpt>
<trkpt lat="46.49727319" lon="6.38117356"><ele>563.174988</ele><time>2009-07-21T18:15:54Z</time></trkpt>
<trkpt lat="46.49744217" lon="6.38074860"><ele>565.711975</ele><time>2009-07-21T18:16:09Z</time></trkpt>
<trkpt lat="46.49745123" lon="6.38072060"><ele>565.935974</ele><time>2009-07-21T18:16:10Z</time></trkpt>
<trkpt lat="46.49747419" lon="6.38041056"><ele>567.784973</ele><time>2009-07-21T18:16:20Z</time></trkpt>
<trkpt lat="46.49746019" lon="6.37996456"><ele>570.888</ele><time>2009-07-21T18:16:33Z</time></trkpt>
<trkpt lat="46.49744318" lon="6.37961260"><ele>573.999023</ele><time>2009-07-21T18:16:44Z</time></trkpt>
<trkpt lat="46.49735517" lon="6.37921060"><ele>577.599976</ele><time>2009-07-21T18:16:57Z</time></trkpt>
<trkpt lat="46.49724319" lon="6.37880861"><ele>580.390015</ele><time>2009-07-21T18:17:09Z</time></trkpt>
<trkpt lat="46.49728920" lon="6.37838256"><ele>582.695984</ele><time>2009-07-21T18:17:21Z</time></trkpt>
<trkpt lat="46.49742021" lon="6.37793857"><ele>584.869995</ele><time>2009-07-21T18:17:33Z</time></trkpt>
<trkpt lat="46.49762616" lon="6.37719962"><ele>588.629028</ele><time>2009-07-21T18:17:52Z</time></trkpt>
<trkpt lat="46.49787719" lon="6.37630762"><ele>591.674011</ele><time>2009-07-21T18:18:13Z</time></trkpt>
<trkpt lat="46.49825220" lon="6.37576757"><ele>592.815979</ele><time>2009-07-21T18:18:28Z</time></trkpt>
<trkpt lat="46.49858220" lon="6.37564058"><ele>593.5</ele><time>2009-07-21T18:18:36Z</time></trkpt>
<trkpt lat="46.49890020" lon="6.37523859"><ele>594.369019</ele><time>2009-07-21T18:18:45Z</time></trkpt>
<trkpt lat="46.49907815" lon="6.37510456"><ele>594.427002</ele><time>2009-07-21T18:18:49Z</time></trkpt>
<trkpt lat="46.49996420" lon="6.37460860"><ele>596.650024</ele><time>2009-07-21T18:19:08Z</time></trkpt>
<trkpt lat="46.50060215" lon="6.37398357"><ele>597.960022</ele><time>2009-07-21T18:19:24Z</time></trkpt>
<trkpt lat="46.50066619" lon="6.37387360"><ele>598.419983</ele><time>2009-07-21T18:19:26Z</time></trkpt>
<trkpt lat="46.50075017" lon="6.37363555"><ele>599.663025</ele><time>2009-07-21T18:19:30Z</time></trkpt>
<trkpt lat="46.50085419" lon="6.37269862"><ele>602.341003</ele><time>2009-07-21T18:19:49Z</time></trkpt>
<trkpt lat="46.50110423" lon="6.37216059"><ele>602.997986</ele><time>2009-07-21T18:20:02Z</time></trkpt>
<trkpt lat="46.50160622" lon="6.37183160"><ele>606.247009</ele><time>2009-07-21T18:20:18Z</time></trkpt>
<trkpt lat="46.50208315" lon="6.37153756"><ele>610.968994</ele><time>2009-07-21T18:20:37Z</time></trkpt>
<trkpt lat="46.50255622" lon="6.37124260"><ele>616.090027</ele><time>2009-07-21T18:21:00Z</time></trkpt>
<trkpt lat="46.50300818" lon="6.37083155"><ele>621.187012</ele><time>2009-07-21T18:21:24Z</time></trkpt>
<trkpt lat="46.50343322" lon="6.37037356"><ele>625.409973</ele><time>2009-07-21T18:21:47Z</time></trkpt>
<trkpt lat="46.50380219" lon="6.36996461"><ele>628.879028</ele><time>2009-07-21T18:22:07Z</time></trkpt>
<trkpt lat="46.50422716" lon="6.36955155"><ele>632.244995</ele><time>2009-07-21T18:22:28Z</time></trkpt>
<trkpt lat="46.50463820" lon="6.36911854"><ele>636.346008</ele><time>2009-07-21T18:22:49Z</time></trkpt>
<trkpt lat="46.50509317" lon="6.36865159"><ele>639.63501</ele><time>2009-07-21T18:23:09Z</time></trkpt>
<trkpt lat="46.50563020" lon="6.36796360"><ele>641.788025</ele><time>2009-07-21T18:23:27Z</time></trkpt>
<trkpt lat="46.50612021" lon="6.36694956"><ele>643.422974</ele><time>2009-07-21T18:23:45Z</time></trkpt>
<trkpt lat="46.50671717" lon="6.36548054"><ele>645.263977</ele><time>2009-07-21T18:24:08Z</time></trkpt>
<trkpt lat="46.50724422" lon="6.36406157"><ele>647.088013</ele><time>2009-07-21T18:24:29Z</time></trkpt>
<trkpt lat="46.50773515" lon="6.36270261"><ele>651.322021</ele><time>2009-07-21T18:24:51Z</time></trkpt>
<trkpt lat="46.50792316" lon="6.36217958"><ele>654.999023</ele><time>2009-07-21T18:25:04Z</time></trkpt>
<trkpt lat="46.50815517" lon="6.36153158"><ele>658.867981</ele><time>2009-07-21T18:25:20Z</time></trkpt>
<trkpt lat="46.50841115" lon="6.36084862"><ele>663.393005</ele><time>2009-07-21T18:25:37Z</time></trkpt>
<trkpt lat="46.50855415" lon="6.36084158"><ele>664.260986</ele><time>2009-07-21T18:25:42Z</time></trkpt>
<trkpt lat="46.50930617" lon="6.36126562"><ele>666</ele><time>2009-07-21T18:26:02Z</time></trkpt>
<trkpt lat="46.51009222" lon="6.36159855"><ele>669.848022</ele><time>2009-07-21T18:26:23Z</time></trkpt>
<trkpt lat="46.51047016" lon="6.36170156"><ele>670.531006</ele><time>2009-07-21T18:26:32Z</time></trkpt>
<trkpt lat="46.51065222" lon="6.36166762"><ele>670.815002</ele><time>2009-07-21T18:26:36Z</time></trkpt>
<trkpt lat="46.51165822" lon="6.36101458"><ele>669.750977</ele><time>2009-07-21T18:26:57Z</time></trkpt>
<trkpt lat="46.51218820" lon="6.36080361"><ele>669.64801</ele><time>2009-07-21T18:27:09Z</time></trkpt>
<trkpt lat="46.51241418" lon="6.36097561"><ele>669.52301</ele><time>2009-07-21T18:27:16Z</time></trkpt>
<trkpt lat="46.51246523" lon="6.36155060"><ele>668.31897</ele><time>2009-07-21T18:27:23Z</time></trkpt>
<trkpt lat="46.51244318" lon="6.36170659"><ele>667.544006</ele><time>2009-07-21T18:27:25Z</time></trkpt>
<trkpt lat="46.51217521" lon="6.36191161"><ele>663.549011</ele><time>2009-07-21T18:27:31Z</time></trkpt>
<trkpt lat="46.51205015" lon="6.36199359"><ele>658.90802</ele><time>2009-07-21T18:27:39Z</time></trkpt>
<trkpt lat="46.51235618" lon="6.36214857"><ele>655.888</ele><time>2009-07-21T18:27:46Z</time></trkpt>
<trkpt lat="46.51263622" lon="6.36245560"><ele>651.161987</ele><time>2009-07-21T18:27:52Z</time></trkpt>
<trkpt lat="46.51294417" lon="6.36233859"><ele>646.059021</ele><time>2009-07-21T18:27:58Z</time></trkpt>
<trkpt lat="46.51309119" lon="6.36218956"><ele>644.890015</ele><time>2009-07-21T18:28:01Z</time></trkpt>
<trkpt lat="46.51321121" lon="6.36201060"><ele>641.937988</ele><time>2009-07-21T18:28:04Z</time></trkpt>
<trkpt lat="46.51330417" lon="6.36200658"><ele>640.867981</ele><time>2009-07-21T18:28:06Z</time></trkpt>
<trkpt lat="46.51347717" lon="6.36194355"><ele>639.366028</ele><time>2009-07-21T18:28:09Z</time></trkpt>
<trkpt lat="46.51381915" lon="6.36182562"><ele>635.494019</ele><time>2009-07-21T18:28:15Z</time></trkpt>
<trkpt lat="46.51386718" lon="6.36192754"><ele>634.760986</ele><time>2009-07-21T18:28:17Z</time></trkpt>
<trkpt lat="46.51376417" lon="6.36208956"><ele>634.026001</ele><time>2009-07-21T18:28:21Z</time></trkpt>
<trkpt lat="46.51346820" lon="6.36236256"><ele>632.351013</ele><time>2009-07-21T18:28:27Z</time></trkpt>
<trkpt lat="46.51328422" lon="6.36267059"><ele>631.268982</ele><time>2009-07-21T18:28:31Z</time></trkpt>
<trkpt lat="46.51321616" lon="6.36282658"><ele>631.023987</ele><time>2009-07-21T18:28:33Z</time></trkpt>
<trkpt lat="46.51304718" lon="6.36308659"><ele>629.153992</ele><time>2009-07-21T18:28:37Z</time></trkpt>
<trkpt lat="46.51285121" lon="6.36322757"><ele>629.155029</ele><time>2009-07-21T18:28:40Z</time></trkpt>
<trkpt lat="46.51273018" lon="6.36333562"><ele>628.132019</ele><time>2009-07-21T18:28:42Z</time></trkpt>
<trkpt lat="46.51242315" lon="6.36338859"><ele>623.531982</ele><time>2009-07-21T18:28:47Z</time></trkpt>
<trkpt lat="46.51219315" lon="6.36329262"><ele>621.059998</ele><time>2009-07-21T18:28:50Z</time></trkpt>
<trkpt lat="46.51170122" lon="6.36345958"><ele>612.468994</ele><time>2009-07-21T18:28:58Z</time></trkpt>
<trkpt lat="46.51188419" lon="6.36371959"><ele>608.505005</ele><time>2009-07-21T18:29:04Z</time></trkpt>
<trkpt lat="46.51192719" lon="6.36378455"><ele>607.572998</ele><time>2009-07-21T18:29:05Z</time></trkpt>
<trkpt lat="46.51217320" lon="6.36429861"><ele>596.25</ele><time>2009-07-21T18:29:13Z</time></trkpt>
<trkpt lat="46.51229021" lon="6.36473958"><ele>585.276001</ele><time>2009-07-21T18:29:19Z</time></trkpt>
<trkpt lat="46.51228518" lon="6.36491158"><ele>582.60199</ele><time>2009-07-21T18:29:21Z</time></trkpt>
<trkpt lat="46.51222215" lon="6.36540259"><ele>572.843994</ele><time>2009-07-21T18:29:27Z</time></trkpt>
<trkpt lat="46.51217622" lon="6.36559454"><ele>569.020996</ele><time>2009-07-21T18:29:30Z</time></trkpt>
<trkpt lat="46.51220522" lon="6.36563955"><ele>568.392029</ele><time>2009-07-21T18:29:32Z</time></trkpt>
<trkpt lat="46.51223615" lon="6.36564659"><ele>567.932007</ele><time>2009-07-21T18:29:33Z</time></trkpt>
<trkpt lat="46.51246615" lon="6.36561759"><ele>564.484985</ele><time>2009-07-21T18:29:37Z</time></trkpt>
<trkpt lat="46.51274116" lon="6.36554156"><ele>562.671021</ele><time>2009-07-21T18:29:40Z</time></trkpt>
<trkpt lat="46.51305221" lon="6.36549261"><ele>561.515991</ele><time>2009-07-21T18:29:43Z</time></trkpt>
<trkpt lat="46.51360919" lon="6.36524158"><ele>555.232971</ele><time>2009-07-21T18:29:49Z</time></trkpt>
<trkpt lat="46.51398419" lon="6.36513060"><ele>550.815002</ele><time>2009-07-21T18:29:53Z</time></trkpt>
<trkpt lat="46.51417715" lon="6.36466959"><ele>551.359985</ele><time>2009-07-21T18:29:59Z</time></trkpt>
<trkpt lat="46.51421721" lon="6.36454554"><ele>551.700012</ele><time>2009-07-21T18:30:01Z</time></trkpt>
<trkpt lat="46.51432718" lon="6.36435159"><ele>552.232971</ele><time>2009-07-21T18:30:05Z</time></trkpt>
<trkpt lat="46.51458819" lon="6.36401556"><ele>553.448975</ele><time>2009-07-21T18:30:14Z</time></trkpt>
<trkpt lat="46.51459515" lon="6.36395856"><ele>554.455994</ele><time>2009-07-21T18:30:16Z</time></trkpt>
<trkpt lat="46.51461015" lon="6.36389259"><ele>555.731018</ele><time>2009-07-21T18:30:19Z</time></trkpt>
<trkpt lat="46.51462616" lon="6.36379260"><ele>557.143982</ele><time>2009-07-21T18:30:23Z</time></trkpt>
<trkpt lat="46.51469816" lon="6.36356855"><ele>559.900024</ele><time>2009-07-21T18:30:32Z</time></trkpt>
<trkpt lat="46.51502321" lon="6.36318357"><ele>560.09198</ele><time>2009-07-21T18:30:44Z</time></trkpt>
<trkpt lat="46.51506621" lon="6.36316362"><ele>560.323975</ele><time>2009-07-21T18:30:45Z</time></trkpt>
<trkpt lat="46.51555320" lon="6.36305055"><ele>561.750977</ele><time>2009-07-21T18:30:58Z</time></trkpt>
<trkpt lat="46.51565420" lon="6.36293261"><ele>562.762024</ele><time>2009-07-21T18:31:03Z</time></trkpt>
<trkpt lat="46.51574615" lon="6.36282960"><ele>564.05603</ele><time>2009-07-21T18:31:10Z</time></trkpt>
<trkpt lat="46.51595218" lon="6.36261159"><ele>567.783997</ele><time>2009-07-21T18:31:22Z</time></trkpt>
<trkpt lat="46.51610121" lon="6.36224857"><ele>570.04303</ele><time>2009-07-21T18:31:38Z</time></trkpt>
<trkpt lat="46.51617422" lon="6.36202460"><ele>569.471985</ele><time>2009-07-21T18:31:42Z</time></trkpt>
<trkpt lat="46.51620515" lon="6.36186157"><ele>569.369019</ele><time>2009-07-21T18:31:45Z</time></trkpt>
<trkpt lat="46.51621722" lon="6.36146461"><ele>568.406982</ele><time>2009-07-21T18:31:52Z</time></trkpt>
<trkpt lat="46.51627916" lon="6.36142655"><ele>568.637024</ele><time>2009-07-21T18:31:56Z</time></trkpt>
<trkpt lat="46.51642023" lon="6.36170760"><ele>572.150024</ele><time>2009-07-21T18:32:08Z</time></trkpt>
<trkpt lat="46.51657915" lon="6.36193559"><ele>575.583984</ele><time>2009-07-21T18:32:20Z</time></trkpt>
<trkpt lat="46.51668518" lon="6.36179460"><ele>574.395996</ele><time>2009-07-21T18:32:25Z</time></trkpt>
<trkpt lat="46.51672516" lon="6.36153359"><ele>572.495972</ele><time>2009-07-21T18:32:28Z</time></trkpt>
<trkpt lat="46.51709522" lon="6.36106060"><ele>568.640991</ele><time>2009-07-21T18:32:36Z</time></trkpt>
<trkpt lat="46.51756218" lon="6.36100260"><ele>568.036011</ele><time>2009-07-21T18:32:42Z</time></trkpt>
<trkpt lat="46.51793215" lon="6.36087955"><ele>568.463013</ele><time>2009-07-21T18:32:47Z</time></trkpt>
<trkpt lat="46.51799317" lon="6.36081962"><ele>568.04303</ele><time>2009-07-21T18:32:49Z</time></trkpt>
<trkpt lat="46.51811522" lon="6.36090562"><ele>567.630981</ele><time>2009-07-21T18:32:52Z</time></trkpt>
<trkpt lat="46.51822619" lon="6.36119060"><ele>567.880005</ele><time>2009-07-21T18:32:57Z</time></trkpt>
<trkpt lat="46.51823918" lon="6.36141557"><ele>568.552979</ele><time>2009-07-21T18:33:00Z</time></trkpt>
<trkpt lat="46.51826818" lon="6.36154759"><ele>569.278015</ele><time>2009-07-21T18:33:02Z</time></trkpt>
<trkpt lat="46.51836315" lon="6.36177155"><ele>570.39502</ele><time>2009-07-21T18:33:06Z</time></trkpt>
<trkpt lat="46.51835217" lon="6.36207657"><ele>571.169006</ele><time>2009-07-21T18:33:11Z</time></trkpt>
<trkpt lat="46.51793316" lon="6.36295860"><ele>573.01001</ele><time>2009-07-21T18:33:27Z</time></trkpt>
<trkpt lat="46.51743720" lon="6.36360258"><ele>575.664978</ele><time>2009-07-21T18:33:44Z</time></trkpt>
<trkpt lat="46.51729815" lon="6.36362060"><ele>575.289001</ele><time>2009-07-21T18:33:49Z</time></trkpt>
<trkpt lat="46.51689716" lon="6.36352060"><ele>575.038025</ele><time>2009-07-21T18:33:56Z</time></trkpt>
<trkpt lat="46.51649617" lon="6.36344056"><ele>571.687012</ele><time>2009-07-21T18:34:01Z</time></trkpt>
<trkpt lat="46.51614220" lon="6.36352857"><ele>568.197021</ele><time>2009-07-21T18:34:05Z</time></trkpt>
<trkpt lat="46.51566016" lon="6.36378656"><ele>562.926025</ele><time>2009-07-21T18:34:10Z</time></trkpt>
<trkpt lat="46.51521818" lon="6.36385261"><ele>558.883972</ele><time>2009-07-21T18:34:14Z</time></trkpt>
<trkpt lat="46.51474519" lon="6.36414656"><ele>553.901978</ele><time>2009-07-21T18:34:20Z</time></trkpt>
<trkpt lat="46.51458518" lon="6.36428059"><ele>554.038025</ele><time>2009-07-21T18:34:23Z</time></trkpt>
<trkpt lat="46.51454419" lon="6.36443557"><ele>556.445984</ele><time>2009-07-21T18:34:31Z</time></trkpt>
<trkpt lat="46.51454519" lon="6.36444655"><ele>556.702026</ele><time>2009-07-21T18:34:32Z</time></trkpt>
<trkpt lat="46.51454218" lon="6.36451855"><ele>558.409973</ele><time>2009-07-21T18:34:38Z</time></trkpt>
<trkpt lat="46.51454117" lon="6.36456155"><ele>558.718018</ele><time>2009-07-21T18:34:42Z</time></trkpt>
<trkpt lat="46.51449717" lon="6.36473154"><ele>557.934021</ele><time>2009-07-21T18:34:46Z</time></trkpt>
<trkpt lat="46.51449122" lon="6.36490454"><ele>559.127991</ele><time>2009-07-21T18:34:51Z</time></trkpt>
<trkpt lat="46.51443816" lon="6.36508760"><ele>560.280029</ele><time>2009-07-21T18:34:56Z</time></trkpt>
<trkpt lat="46.51435216" lon="6.36519556"><ele>560.304993</ele><time>2009-07-21T18:35:01Z</time></trkpt>
<trkpt lat="46.51422216" lon="6.36532355"><ele>557.716003</ele><time>2009-07-21T18:35:07Z</time></trkpt>
<trkpt lat="46.51416717" lon="6.36569956"><ele>560.228027</ele><time>2009-07-21T18:35:15Z</time></trkpt>
<trkpt lat="46.51403415" lon="6.36601556"><ele>560.161987</ele><time>2009-07-21T18:35:21Z</time></trkpt>
<trkpt lat="46.51392519" lon="6.36607859"><ele>559.190979</ele><time>2009-07-21T18:35:23Z</time></trkpt>
<trkpt lat="46.51359016" lon="6.36646760"><ele>556.627991</ele><time>2009-07-21T18:35:30Z</time></trkpt>
<trkpt lat="46.51326519" lon="6.36672660"><ele>559.526978</ele><time>2009-07-21T18:35:38Z</time></trkpt>
<trkpt lat="46.51318917" lon="6.36678854"><ele>559.661011</ele><time>2009-07-21T18:35:40Z</time></trkpt>
<trkpt lat="46.51311415" lon="6.36688560"><ele>559.210022</ele><time>2009-07-21T18:35:42Z</time></trkpt>
<trkpt lat="46.51304718" lon="6.36701259"><ele>558.396973</ele><time>2009-07-21T18:35:44Z</time></trkpt>
<trkpt lat="46.51310217" lon="6.36758658"><ele>559.218018</ele><time>2009-07-21T18:35:51Z</time></trkpt>
<trkpt lat="46.51312019" lon="6.36767962"><ele>558.859985</ele><time>2009-07-21T18:35:52Z</time></trkpt>
<trkpt lat="46.51306319" lon="6.36808061"><ele>557.478027</ele><time>2009-07-21T18:35:57Z</time></trkpt>
<trkpt lat="46.51294517" lon="6.36831061"><ele>558.336975</ele><time>2009-07-21T18:36:00Z</time></trkpt>
<trkpt lat="46.51293822" lon="6.36862862"><ele>559.296997</ele><time>2009-07-21T18:36:04Z</time></trkpt>
<trkpt lat="46.51278315" lon="6.36909356"><ele>559.906982</ele><time>2009-07-21T18:36:12Z</time></trkpt>
<trkpt lat="46.51255516" lon="6.36951257"><ele>561.76001</ele><time>2009-07-21T18:36:20Z</time></trkpt>
<trkpt lat="46.51237017" lon="6.36976361"><ele>561.726013</ele><time>2009-07-21T18:36:25Z</time></trkpt>
<trkpt lat="46.51207421" lon="6.37005254"><ele>564.25</ele><time>2009-07-21T18:36:36Z</time></trkpt>
<trkpt lat="46.51195820" lon="6.37028161"><ele>565.106995</ele><time>2009-07-21T18:36:41Z</time></trkpt>
<trkpt lat="46.51187916" lon="6.37037759"><ele>564.08197</ele><time>2009-07-21T18:36:43Z</time></trkpt>
<trkpt lat="46.51176517" lon="6.37072762"><ele>562.11499</ele><time>2009-07-21T18:36:47Z</time></trkpt>
<trkpt lat="46.51167917" lon="6.37091260"><ele>560.638</ele><time>2009-07-21T18:36:49Z</time></trkpt>
<trkpt lat="46.51157515" lon="6.37111360"><ele>559.361023</ele><time>2009-07-21T18:36:51Z</time></trkpt>
<trkpt lat="46.51145118" lon="6.37143262"><ele>559.278015</ele><time>2009-07-21T18:36:53Z</time></trkpt>
<trkpt lat="46.51138321" lon="6.37196462"><ele>556.703003</ele><time>2009-07-21T18:36:57Z</time></trkpt>
<trkpt lat="46.51126720" lon="6.37245655"><ele>556.08197</ele><time>2009-07-21T18:37:01Z</time></trkpt>
<trkpt lat="46.51098222" lon="6.37306055"><ele>553.356995</ele><time>2009-07-21T18:37:07Z</time></trkpt>
<trkpt lat="46.51083520" lon="6.37345056"><ele>553.791992</ele><time>2009-07-21T18:37:11Z</time></trkpt>
<trkpt lat="46.51090217" lon="6.37399161"><ele>556.843018</ele><time>2009-07-21T18:37:18Z</time></trkpt>
<trkpt lat="46.51092321" lon="6.37404157"><ele>557.124023</ele><time>2009-07-21T18:37:19Z</time></trkpt>
<trkpt lat="46.51101918" lon="6.37449855"><ele>560.427979</ele><time>2009-07-21T18:37:28Z</time></trkpt>
<trkpt lat="46.51103519" lon="6.37542760"><ele>563.760986</ele><time>2009-07-21T18:37:45Z</time></trkpt>
<trkpt lat="46.51099822" lon="6.37645958"><ele>569.336975</ele><time>2009-07-21T18:38:06Z</time></trkpt>
<trkpt lat="46.51055717" lon="6.37692461"><ele>572.896973</ele><time>2009-07-21T18:38:21Z</time></trkpt>
<trkpt lat="46.51035517" lon="6.37708160"><ele>573.375</ele><time>2009-07-21T18:38:26Z</time></trkpt>
<trkpt lat="46.51016515" lon="6.37713357"><ele>573.934998</ele><time>2009-07-21T18:38:30Z</time></trkpt>
<trkpt lat="46.50968721" lon="6.37727757"><ele>572.877014</ele><time>2009-07-21T18:38:38Z</time></trkpt>
<trkpt lat="46.50880518" lon="6.37723055"><ele>571.861023</ele><time>2009-07-21T18:38:50Z</time></trkpt>
<trkpt lat="46.50831115" lon="6.37743758"><ele>574.281006</ele><time>2009-07-21T18:38:58Z</time></trkpt>
<trkpt lat="46.50756516" lon="6.37831056"><ele>574.922974</ele><time>2009-07-21T18:39:13Z</time></trkpt>
<trkpt lat="46.50712922" lon="6.37927556"><ele>574.586975</ele><time>2009-07-21T18:39:26Z</time></trkpt>
<trkpt lat="46.50706518" lon="6.37938160"><ele>575.226013</ele><time>2009-07-21T18:39:28Z</time></trkpt>
<trkpt lat="46.50673720" lon="6.38031056"><ele>577.052979</ele><time>2009-07-21T18:39:41Z</time></trkpt>
<trkpt lat="46.50670116" lon="6.38045657"><ele>577.64801</ele><time>2009-07-21T18:39:43Z</time></trkpt>
<trkpt lat="46.50688221" lon="6.38071759"><ele>577.862976</ele><time>2009-07-21T18:39:50Z</time></trkpt>
<trkpt lat="46.50706116" lon="6.38061156"><ele>576.440979</ele><time>2009-07-21T18:39:53Z</time></trkpt>
<trkpt lat="46.50712520" lon="6.38059957"><ele>576.388977</ele><time>2009-07-21T18:39:54Z</time></trkpt>
<trkpt lat="46.50728521" lon="6.38060560"><ele>575.690979</ele><time>2009-07-21T18:39:56Z</time></trkpt>
<trkpt lat="46.50745922" lon="6.38064760"><ele>575.283997</ele><time>2009-07-21T18:39:58Z</time></trkpt>
<trkpt lat="46.50775217" lon="6.38090760"><ele>574.598022</ele><time>2009-07-21T18:40:02Z</time></trkpt>
<trkpt lat="46.50809121" lon="6.38137758"><ele>574.776978</ele><time>2009-07-21T18:40:08Z</time></trkpt>
<trkpt lat="46.50840419" lon="6.38201158"><ele>574.940979</ele><time>2009-07-21T18:40:16Z</time></trkpt>
<trkpt lat="46.50882019" lon="6.38258759"><ele>579.02301</ele><time>2009-07-21T18:40:29Z</time></trkpt>
<trkpt lat="46.50887417" lon="6.38264358"><ele>579.661987</ele><time>2009-07-21T18:40:31Z</time></trkpt>
<trkpt lat="46.50917022" lon="6.38283058"><ele>580.171021</ele><time>2009-07-21T18:40:40Z</time></trkpt>
<trkpt lat="46.50907315" lon="6.38313258"><ele>580.401978</ele><time>2009-07-21T18:40:47Z</time></trkpt>
<trkpt lat="46.50901616" lon="6.38315454"><ele>580.448975</ele><time>2009-07-21T18:40:48Z</time></trkpt>
<trkpt lat="46.50889722" lon="6.38320156"><ele>580.031006</ele><time>2009-07-21T18:40:50Z</time></trkpt>
<trkpt lat="46.50846815" lon="6.38336258"><ele>579.666016</ele><time>2009-07-21T18:40:57Z</time></trkpt>
<trkpt lat="46.50833915" lon="6.38345956"><ele>580.27002</ele><time>2009-07-21T18:41:00Z</time></trkpt>
<trkpt lat="46.50794520" lon="6.38368361"><ele>583.439026</ele><time>2009-07-21T18:41:12Z</time></trkpt>
<trkpt lat="46.50780019" lon="6.38375158"><ele>585.692993</ele><time>2009-07-21T18:41:18Z</time></trkpt>
<trkpt lat="46.50746022" lon="6.38365662"><ele>588.914978</ele><time>2009-07-21T18:41:30Z</time></trkpt>
<trkpt lat="46.50725923" lon="6.38366760"><ele>589.289001</ele><time>2009-07-21T18:41:35Z</time></trkpt>
<trkpt lat="46.50688221" lon="6.38418761"><ele>588.411987</ele><time>2009-07-21T18:41:44Z</time></trkpt>
<trkpt lat="46.50678615" lon="6.38434955"><ele>586.588013</ele><time>2009-07-21T18:41:48Z</time></trkpt>
<trkpt lat="46.50675422" lon="6.38431954"><ele>586.002991</ele><time>2009-07-21T18:41:49Z</time></trkpt>
<trkpt lat="46.50636815" lon="6.38394554"><ele>577.682983</ele><time>2009-07-21T18:41:56Z</time></trkpt>
<trkpt lat="46.50605123" lon="6.38432859"><ele>575.612976</ele><time>2009-07-21T18:42:04Z</time></trkpt>
<trkpt lat="46.50559517" lon="6.38486059"><ele>570.708984</ele><time>2009-07-21T18:42:10Z</time></trkpt>
<trkpt lat="46.50550716" lon="6.38496160"><ele>570.049988</ele><time>2009-07-21T18:42:11Z</time></trkpt>
<trkpt lat="46.50473619" lon="6.38526561"><ele>562.580017</ele><time>2009-07-21T18:42:18Z</time></trkpt>
<trkpt lat="46.50463720" lon="6.38529360"><ele>561.28302</ele><time>2009-07-21T18:42:19Z</time></trkpt>
<trkpt lat="46.50422917" lon="6.38555956"><ele>555.398987</ele><time>2009-07-21T18:42:24Z</time></trkpt>
<trkpt lat="46.50410922" lon="6.38570356"><ele>552.927002</ele><time>2009-07-21T18:42:26Z</time></trkpt>
<trkpt lat="46.50348720" lon="6.38638660"><ele>540.708008</ele><time>2009-07-21T18:42:35Z</time></trkpt>
<trkpt lat="46.50304715" lon="6.38679455"><ele>530.78302</ele><time>2009-07-21T18:42:41Z</time></trkpt>
<trkpt lat="46.50291120" lon="6.38690854"><ele>527.830994</ele><time>2009-07-21T18:42:43Z</time></trkpt>
<trkpt lat="46.50245422" lon="6.38731758"><ele>519.153015</ele><time>2009-07-21T18:42:50Z</time></trkpt>
<trkpt lat="46.50218817" lon="6.38752654"><ele>515.008972</ele><time>2009-07-21T18:42:53Z</time></trkpt>
<trkpt lat="46.50162818" lon="6.38804161"><ele>504.381012</ele><time>2009-07-21T18:43:00Z</time></trkpt>
<trkpt lat="46.50140916" lon="6.38823054"><ele>500.325012</ele><time>2009-07-21T18:43:03Z</time></trkpt>
<trkpt lat="46.50120816" lon="6.38835258"><ele>495.412994</ele><time>2009-07-21T18:43:06Z</time></trkpt>
<trkpt lat="46.50057415" lon="6.38877461"><ele>488.049988</ele><time>2009-07-21T18:43:15Z</time></trkpt>
<trkpt lat="46.50025019" lon="6.38924056"><ele>484.144012</ele><time>2009-07-21T18:43:19Z</time></trkpt>
<trkpt lat="46.49964921" lon="6.38998361"><ele>477.480988</ele><time>2009-07-21T18:43:26Z</time></trkpt>
<trkpt lat="46.49959615" lon="6.39026457"><ele>477.783997</ele><time>2009-07-21T18:43:28Z</time></trkpt>
<trkpt lat="46.49940815" lon="6.39064654"><ele>478.678986</ele><time>2009-07-21T18:43:34Z</time></trkpt>
<trkpt lat="46.49930120" lon="6.39063162"><ele>478.398987</ele><time>2009-07-21T18:43:36Z</time></trkpt>
<trkpt lat="46.49908519" lon="6.39073656"><ele>479.509003</ele><time>2009-07-21T18:43:41Z</time></trkpt>
<trkpt lat="46.49878722" lon="6.39120058"><ele>482.451996</ele><time>2009-07-21T18:43:54Z</time></trkpt>
<trkpt lat="46.49848019" lon="6.39168556"><ele>485.187012</ele><time>2009-07-21T18:44:07Z</time></trkpt>
<trkpt lat="46.49823016" lon="6.39182260"><ele>486.963013</ele><time>2009-07-21T18:44:17Z</time></trkpt>
<trkpt lat="46.49819017" lon="6.39179058"><ele>487.524994</ele><time>2009-07-21T18:44:21Z</time></trkpt>
<trkpt lat="46.49815715" lon="6.39172956"><ele>488.608002</ele><time>2009-07-21T18:44:25Z</time></trkpt>
<trkpt lat="46.49800317" lon="6.39159461"><ele>493.05899</ele><time>2009-07-21T18:44:39Z</time></trkpt>
<trkpt lat="46.49799915" lon="6.39151658"><ele>494.34201</ele><time>2009-07-21T18:44:43Z</time></trkpt>
<trkpt lat="46.49802715" lon="6.39135959"><ele>496.179993</ele><time>2009-07-21T18:44:51Z</time></trkpt>
<trkpt lat="46.49804215" lon="6.39105960"><ele>500.477997</ele><time>2009-07-21T18:45:06Z</time></trkpt>
<trkpt lat="46.49798716" lon="6.39084854"><ele>504.375</ele><time>2009-07-21T18:45:20Z</time></trkpt>
<trkpt lat="46.49797216" lon="6.39080957"><ele>505.179993</ele><time>2009-07-21T18:45:23Z</time></trkpt>
<trkpt lat="46.49796621" lon="6.39078459"><ele>505.839996</ele><time>2009-07-21T18:45:25Z</time></trkpt>
<trkpt lat="46.49781123" lon="6.39060354"><ele>510.790009</ele><time>2009-07-21T18:45:42Z</time></trkpt>
<trkpt lat="46.49755617" lon="6.39045157"><ele>516.033997</ele><time>2009-07-21T18:46:00Z</time></trkpt>
<trkpt lat="46.49736020" lon="6.39023758"><ele>520.130981</ele><time>2009-07-21T18:46:17Z</time></trkpt>
<trkpt lat="46.49729817" lon="6.39015854"><ele>521.453003</ele><time>2009-07-21T18:46:23Z</time></trkpt>
<trkpt lat="46.49702417" lon="6.38997657"><ele>526.685974</ele><time>2009-07-21T18:46:44Z</time></trkpt>
<trkpt lat="46.49673315" lon="6.38995361"><ele>529.174011</ele><time>2009-07-21T18:47:01Z</time></trkpt>
<trkpt lat="46.49647716" lon="6.39020858"><ele>531.187012</ele><time>2009-07-21T18:47:15Z</time></trkpt>
<trkpt lat="46.49635521" lon="6.39033155"><ele>532.010986</ele><time>2009-07-21T18:47:22Z</time></trkpt>
<trkpt lat="46.49628622" lon="6.39025359"><ele>532.320984</ele><time>2009-07-21T18:47:26Z</time></trkpt>
<trkpt lat="46.49623618" lon="6.38958958"><ele>534.630981</ele><time>2009-07-21T18:47:42Z</time></trkpt>
<trkpt lat="46.49606519" lon="6.38914257"><ele>535.830017</ele><time>2009-07-21T18:47:55Z</time></trkpt>
<trkpt lat="46.49603016" lon="6.38913059"><ele>535.890015</ele><time>2009-07-21T18:47:56Z</time></trkpt>
<trkpt lat="46.49552121" lon="6.38875457"><ele>538.184021</ele><time>2009-07-21T18:48:08Z</time></trkpt>
<trkpt lat="46.49503615" lon="6.38808159"><ele>541.622986</ele><time>2009-07-21T18:48:24Z</time></trkpt>
<trkpt lat="46.49482115" lon="6.38772754"><ele>542.052002</ele><time>2009-07-21T18:48:31Z</time></trkpt>
<trkpt lat="46.49416116" lon="6.38619659"><ele>542.791016</ele><time>2009-07-21T18:48:54Z</time></trkpt>
<trkpt lat="46.49391616" lon="6.38559854"><ele>543.780029</ele><time>2009-07-21T18:49:03Z</time></trkpt>
<trkpt lat="46.49381918" lon="6.38519361"><ele>545.052979</ele><time>2009-07-21T18:49:09Z</time></trkpt>
<trkpt lat="46.49378716" lon="6.38500057"><ele>544.934998</ele><time>2009-07-21T18:49:12Z</time></trkpt>
<trkpt lat="46.49372321" lon="6.38477761"><ele>545.734985</ele><time>2009-07-21T18:49:16Z</time></trkpt>
<trkpt lat="46.49346521" lon="6.38348554"><ele>547.244019</ele><time>2009-07-21T18:49:34Z</time></trkpt>
<trkpt lat="46.49334418" lon="6.38313761"><ele>548.195007</ele><time>2009-07-21T18:49:39Z</time></trkpt>
<trkpt lat="46.49303220" lon="6.38281055"><ele>550.27002</ele><time>2009-07-21T18:49:47Z</time></trkpt>
<trkpt lat="46.49207717" lon="6.38234057"><ele>551.30603</ele><time>2009-07-21T18:50:06Z</time></trkpt>
<trkpt lat="46.49176821" lon="6.38192357"><ele>550.724976</ele><time>2009-07-21T18:50:13Z</time></trkpt>
<trkpt lat="46.49165321" lon="6.38142359"><ele>550.924988</ele><time>2009-07-21T18:50:19Z</time></trkpt>
<trkpt lat="46.49147317" lon="6.38078959"><ele>550.541016</ele><time>2009-07-21T18:50:27Z</time></trkpt>
<trkpt lat="46.49069918" lon="6.37970656"><ele>550.112</ele><time>2009-07-21T18:50:45Z</time></trkpt>
<trkpt lat="46.48983417" lon="6.37853058"><ele>551.52301</ele><time>2009-07-21T18:51:06Z</time></trkpt>
<trkpt lat="46.48896220" lon="6.37731462"><ele>556.189026</ele><time>2009-07-21T18:51:29Z</time></trkpt>
<trkpt lat="46.48835317" lon="6.37610461"><ele>557.263</ele><time>2009-07-21T18:51:49Z</time></trkpt>
<trkpt lat="46.48840422" lon="6.37496660"><ele>557.054993</ele><time>2009-07-21T18:52:04Z</time></trkpt>
<trkpt lat="46.48839517" lon="6.37403059"><ele>557.070007</ele><time>2009-07-21T18:52:16Z</time></trkpt>
<trkpt lat="46.48808017" lon="6.37203662"><ele>558.942017</ele><time>2009-07-21T18:52:42Z</time></trkpt>
<trkpt lat="46.48791421" lon="6.37139356"><ele>558.612</ele><time>2009-07-21T18:52:51Z</time></trkpt>
<trkpt lat="46.48726319" lon="6.37028061"><ele>557.054993</ele><time>2009-07-21T18:53:06Z</time></trkpt>
<trkpt lat="46.48625518" lon="6.36859358"><ele>558.297974</ele><time>2009-07-21T18:53:30Z</time></trkpt>
<trkpt lat="46.48550022" lon="6.36783158"><ele>559.083008</ele><time>2009-07-21T18:53:45Z</time></trkpt>
<trkpt lat="46.48457922" lon="6.36726061"><ele>559.674988</ele><time>2009-07-21T18:54:01Z</time></trkpt>
<trkpt lat="46.48364120" lon="6.36597558"><ele>560.796997</ele><time>2009-07-21T18:54:23Z</time></trkpt>
<trkpt lat="46.48249221" lon="6.36437757"><ele>562.552979</ele><time>2009-07-21T18:54:51Z</time></trkpt>
<trkpt lat="46.48180816" lon="6.36301962"><ele>564.5</ele><time>2009-07-21T18:55:12Z</time></trkpt>
<trkpt lat="46.48114021" lon="6.36144759"><ele>561.135986</ele><time>2009-07-21T18:55:32Z</time></trkpt>
<trkpt lat="46.48077920" lon="6.36073454"><ele>558.554016</ele><time>2009-07-21T18:55:40Z</time></trkpt>
<trkpt lat="46.48006515" lon="6.35925857"><ele>555.104004</ele><time>2009-07-21T18:55:55Z</time></trkpt>
<trkpt lat="46.47974915" lon="6.35841954"><ele>555.453979</ele><time>2009-07-21T18:56:05Z</time></trkpt>
<trkpt lat="46.47949015" lon="6.35760055"><ele>556.593994</ele><time>2009-07-21T18:56:16Z</time></trkpt>
<trkpt lat="46.47913216" lon="6.35604260"><ele>556.554993</ele><time>2009-07-21T18:56:37Z</time></trkpt>
<trkpt lat="46.47872915" lon="6.35459161"><ele>554.281006</ele><time>2009-07-21T18:56:52Z</time></trkpt>
<trkpt lat="46.47851315" lon="6.35376859"><ele>557.38501</ele><time>2009-07-21T18:57:04Z</time></trkpt>
<trkpt lat="46.47841416" lon="6.35323458"><ele>556.796021</ele><time>2009-07-21T18:57:11Z</time></trkpt>
<trkpt lat="46.47840318" lon="6.35303761"><ele>555.838013</ele><time>2009-07-21T18:57:13Z</time></trkpt>
<trkpt lat="46.47822423" lon="6.35206757"><ele>557.112976</ele><time>2009-07-21T18:57:25Z</time></trkpt>
<trkpt lat="46.47821819" lon="6.35199255"><ele>557.434021</ele><time>2009-07-21T18:57:26Z</time></trkpt>
<trkpt lat="46.47824418" lon="6.35169256"><ele>557.057983</ele><time>2009-07-21T18:57:30Z</time></trkpt>
<trkpt lat="46.47818618" lon="6.35037158"><ele>556.919006</ele><time>2009-07-21T18:57:47Z</time></trkpt>
<trkpt lat="46.47816916" lon="6.34997461"><ele>557.088989</ele><time>2009-07-21T18:57:52Z</time></trkpt>
<trkpt lat="46.47832221" lon="6.34886661"><ele>557.44397</ele><time>2009-07-21T18:58:06Z</time></trkpt>
<trkpt lat="46.47828315" lon="6.34859654"><ele>558.362</ele><time>2009-07-21T18:58:10Z</time></trkpt>
<trkpt lat="46.47782919" lon="6.34753556"><ele>562.268982</ele><time>2009-07-21T18:58:31Z</time></trkpt>
<trkpt lat="46.47781016" lon="6.34692762"><ele>564.440002</ele><time>2009-07-21T18:58:42Z</time></trkpt>
<trkpt lat="46.47800320" lon="6.34607158"><ele>565.882019</ele><time>2009-07-21T18:58:57Z</time></trkpt>
<trkpt lat="46.47798618" lon="6.34578961"><ele>565.843018</ele><time>2009-07-21T18:59:01Z</time></trkpt>
<trkpt lat="46.47767521" lon="6.34484354"><ele>566.086975</ele><time>2009-07-21T18:59:15Z</time></trkpt>
<trkpt lat="46.47781318" lon="6.34428062"><ele>564.231018</ele><time>2009-07-21T18:59:22Z</time></trkpt>
<trkpt lat="46.47787822" lon="6.34421960"><ele>564.262024</ele><time>2009-07-21T18:59:23Z</time></trkpt>
<trkpt lat="46.47800420" lon="6.34409554"><ele>563.171021</ele><time>2009-07-21T18:59:25Z</time></trkpt>
<trkpt lat="46.47809716" lon="6.34366061"><ele>561.911011</ele><time>2009-07-21T18:59:29Z</time></trkpt>
<trkpt lat="46.47804419" lon="6.34350060"><ele>562.405029</ele><time>2009-07-21T18:59:31Z</time></trkpt>
<trkpt lat="46.47769617" lon="6.34331259"><ele>565.215027</ele><time>2009-07-21T18:59:39Z</time></trkpt>
<trkpt lat="46.47755921" lon="6.34290062"><ele>569.776978</ele><time>2009-07-21T18:59:54Z</time></trkpt>
<trkpt lat="46.47755720" lon="6.34203259"><ele>573.093994</ele><time>2009-07-21T19:00:14Z</time></trkpt>
<trkpt lat="46.47754722" lon="6.34097060"><ele>574.093994</ele><time>2009-07-21T19:00:34Z</time></trkpt>
<trkpt lat="46.47754521" lon="6.34089055"><ele>574.103027</ele><time>2009-07-21T19:00:35Z</time></trkpt>
<trkpt lat="46.47740716" lon="6.34044355"><ele>573.965027</ele><time>2009-07-21T19:00:41Z</time></trkpt>
<trkpt lat="46.47733223" lon="6.34032159"><ele>574.125977</ele><time>2009-07-21T19:00:43Z</time></trkpt>
<trkpt lat="46.47673921" lon="6.33931157"><ele>573.416992</ele><time>2009-07-21T19:00:58Z</time></trkpt>
<trkpt lat="46.47649219" lon="6.33839660"><ele>574.700989</ele><time>2009-07-21T19:01:10Z</time></trkpt>
<trkpt lat="46.47625918" lon="6.33752958"><ele>577.015991</ele><time>2009-07-21T19:01:24Z</time></trkpt>
<trkpt lat="46.47611023" lon="6.33734761"><ele>575.94397</ele><time>2009-07-21T19:01:28Z</time></trkpt>
<trkpt lat="46.47605818" lon="6.33730855"><ele>574.552002</ele><time>2009-07-21T19:01:31Z</time></trkpt>
<trkpt lat="46.47603521" lon="6.33728055"><ele>574.213989</ele><time>2009-07-21T19:01:36Z</time></trkpt>
<trkpt lat="46.47615415" lon="6.33736454"><ele>575.533997</ele><time>2009-07-21T19:01:44Z</time></trkpt>
<trkpt lat="46.47620218" lon="6.33728860"><ele>576.827026</ele><time>2009-07-21T19:01:47Z</time></trkpt>
<trkpt lat="46.47620117" lon="6.33724258"><ele>577.064026</ele><time>2009-07-21T19:01:48Z</time></trkpt>
<trkpt lat="46.47615122" lon="6.33624958"><ele>579.291016</ele><time>2009-07-21T19:02:08Z</time></trkpt>
<trkpt lat="46.47614116" lon="6.33585856"><ele>578.79303</ele><time>2009-07-21T19:02:16Z</time></trkpt>
<trkpt lat="46.47619422" lon="6.33580861"><ele>579.065979</ele><time>2009-07-21T19:02:19Z</time></trkpt>
<trkpt lat="46.47629723" lon="6.33523956"><ele>581.536987</ele><time>2009-07-21T19:02:31Z</time></trkpt>
<trkpt lat="46.47635917" lon="6.33435158"><ele>583.984985</ele><time>2009-07-21T19:02:46Z</time></trkpt>
<trkpt lat="46.47634618" lon="6.33406157"><ele>584.442993</ele><time>2009-07-21T19:02:51Z</time></trkpt>
<trkpt lat="46.47629220" lon="6.33354658"><ele>588.197998</ele><time>2009-07-21T19:03:05Z</time></trkpt>
<trkpt lat="46.47634216" lon="6.33336461"><ele>591.192993</ele><time>2009-07-21T19:03:15Z</time></trkpt>
<trkpt lat="46.47638122" lon="6.33330158"><ele>592.219971</ele><time>2009-07-21T19:03:19Z</time></trkpt>
<trkpt lat="46.47647518" lon="6.33303755"><ele>596.58197</ele><time>2009-07-21T19:03:34Z</time></trkpt>
<trkpt lat="46.47648121" lon="6.33299757"><ele>597.148987</ele><time>2009-07-21T19:03:36Z</time></trkpt>
<trkpt lat="46.47650921" lon="6.33287058"><ele>598.72699</ele><time>2009-07-21T19:03:42Z</time></trkpt>
<trkpt lat="46.47653419" lon="6.33274460"><ele>600.48999</ele><time>2009-07-21T19:03:48Z</time></trkpt>
<trkpt lat="46.47654718" lon="6.33254260"><ele>603.27301</ele><time>2009-07-21T19:03:57Z</time></trkpt>
<trkpt lat="46.47653016" lon="6.33212962"><ele>606.468994</ele><time>2009-07-21T19:04:11Z</time></trkpt>
<trkpt lat="46.47665916" lon="6.33156259"><ele>608.901001</ele><time>2009-07-21T19:04:29Z</time></trkpt>
<trkpt lat="46.47685815" lon="6.33110359"><ele>610.190002</ele><time>2009-07-21T19:04:44Z</time></trkpt>
<trkpt lat="46.47695521" lon="6.33094057"><ele>608.978027</ele><time>2009-07-21T19:04:47Z</time></trkpt>
<trkpt lat="46.47709217" lon="6.33077460"><ele>607.262024</ele><time>2009-07-21T19:04:50Z</time></trkpt>
<trkpt lat="46.47689922" lon="6.33049859"><ele>603.632019</ele><time>2009-07-21T19:04:55Z</time></trkpt>
<trkpt lat="46.47681121" lon="6.33043958"><ele>602.508972</ele><time>2009-07-21T19:04:56Z</time></trkpt>
<trkpt lat="46.47649119" lon="6.33032659"><ele>599.314026</ele><time>2009-07-21T19:04:59Z</time></trkpt>
<trkpt lat="46.47637317" lon="6.33032357"><ele>598.265015</ele><time>2009-07-21T19:05:00Z</time></trkpt>
<trkpt lat="46.47577219" lon="6.33036154"><ele>593.338013</ele><time>2009-07-21T19:05:05Z</time></trkpt>
<trkpt lat="46.47517716" lon="6.33013062"><ele>584.534973</ele><time>2009-07-21T19:05:11Z</time></trkpt>
<trkpt lat="46.47507515" lon="6.32993859"><ele>584.18103</ele><time>2009-07-21T19:05:15Z</time></trkpt>
<trkpt lat="46.47489921" lon="6.32899756"><ele>587.68103</ele><time>2009-07-21T19:05:34Z</time></trkpt>
<trkpt lat="46.47471816" lon="6.32809256"><ele>592.047974</ele><time>2009-07-21T19:05:52Z</time></trkpt>
<trkpt lat="46.47477516" lon="6.32740558"><ele>595.078979</ele><time>2009-07-21T19:06:05Z</time></trkpt>
<trkpt lat="46.47496920" lon="6.32621761"><ele>600.434021</ele><time>2009-07-21T19:06:28Z</time></trkpt>
<trkpt lat="46.47497121" lon="6.32516258"><ele>604.174988</ele><time>2009-07-21T19:06:48Z</time></trkpt>
<trkpt lat="46.47502519" lon="6.32484558"><ele>604.716003</ele><time>2009-07-21T19:06:54Z</time></trkpt>
<trkpt lat="46.47479519" lon="6.32434158"><ele>602.369995</ele><time>2009-07-21T19:07:01Z</time></trkpt>
<trkpt lat="46.47451323" lon="6.32409456"><ele>600.41803</ele><time>2009-07-21T19:07:05Z</time></trkpt>
<trkpt lat="46.47442320" lon="6.32406556"><ele>599.843018</ele><time>2009-07-21T19:07:06Z</time></trkpt>
<trkpt lat="46.47423117" lon="6.32402558"><ele>598.919983</ele><time>2009-07-21T19:07:08Z</time></trkpt>
<trkpt lat="46.47395516" lon="6.32383162"><ele>597.263977</ele><time>2009-07-21T19:07:11Z</time></trkpt>
<trkpt lat="46.47382616" lon="6.32359257"><ele>595.862976</ele><time>2009-07-21T19:07:13Z</time></trkpt>
<trkpt lat="46.47308822" lon="6.32186556"><ele>590.607971</ele><time>2009-07-21T19:07:28Z</time></trkpt>
<trkpt lat="46.47290222" lon="6.32143959"><ele>589.580994</ele><time>2009-07-21T19:07:32Z</time></trkpt>
<trkpt lat="46.47282519" lon="6.32078958"><ele>586.885986</ele><time>2009-07-21T19:07:37Z</time></trkpt>
<trkpt lat="46.47286316" lon="6.32022254"><ele>584.671021</ele><time>2009-07-21T19:07:41Z</time></trkpt>
<trkpt lat="46.47266719" lon="6.32000461"><ele>582.719971</ele><time>2009-07-21T19:07:45Z</time></trkpt>
<trkpt lat="46.47248120" lon="6.32006655"><ele>579.976013</ele><time>2009-07-21T19:07:47Z</time></trkpt>
<trkpt lat="46.47182716" lon="6.32071858"><ele>569.143005</ele><time>2009-07-21T19:07:53Z</time></trkpt>
<trkpt lat="46.47135115" lon="6.32124354"><ele>558.721008</ele><time>2009-07-21T19:07:57Z</time></trkpt>
<trkpt lat="46.47075620" lon="6.32187956"><ele>547.590027</ele><time>2009-07-21T19:08:02Z</time></trkpt>
<trkpt lat="46.47037315" lon="6.32228357"><ele>537.573975</ele><time>2009-07-21T19:08:06Z</time></trkpt>
<trkpt lat="46.46999018" lon="6.32232254"><ele>532.455017</ele><time>2009-07-21T19:08:10Z</time></trkpt>
<trkpt lat="46.46936615" lon="6.32250954"><ele>522.947021</ele><time>2009-07-21T19:08:15Z</time></trkpt>
<trkpt lat="46.46878419" lon="6.32299058"><ele>510.661987</ele><time>2009-07-21T19:08:20Z</time></trkpt>
<trkpt lat="46.46854816" lon="6.32323659"><ele>504.774994</ele><time>2009-07-21T19:08:24Z</time></trkpt>
<trkpt lat="46.46809118" lon="6.32372358"><ele>498.627991</ele><time>2009-07-21T19:08:31Z</time></trkpt>
<trkpt lat="46.46727218" lon="6.32440059"><ele>487.358002</ele><time>2009-07-21T19:08:38Z</time></trkpt>
<trkpt lat="46.46640818" lon="6.32499461"><ele>475.545013</ele><time>2009-07-21T19:08:44Z</time></trkpt>
<trkpt lat="46.46564517" lon="6.32560557"><ele>463.618011</ele><time>2009-07-21T19:08:50Z</time></trkpt>
<trkpt lat="46.46538718" lon="6.32580162"><ele>457.466003</ele><time>2009-07-21T19:08:53Z</time></trkpt>
<trkpt lat="46.46524921" lon="6.32568059"><ele>456.187012</ele><time>2009-07-21T19:08:56Z</time></trkpt>
<trkpt lat="46.46475317" lon="6.32512755"><ele>453.602997</ele><time>2009-07-21T19:09:04Z</time></trkpt>
<trkpt lat="46.46467321" lon="6.32506460"><ele>453.325989</ele><time>2009-07-21T19:09:05Z</time></trkpt>
<trkpt lat="46.46423416" lon="6.32476956"><ele>450.976013</ele><time>2009-07-21T19:09:10Z</time></trkpt>
<trkpt lat="46.46385320" lon="6.32451257"><ele>448.513</ele><time>2009-07-21T19:09:14Z</time></trkpt>
<trkpt lat="46.46364818" lon="6.32442154"><ele>447.131989</ele><time>2009-07-21T19:09:16Z</time></trkpt>
<trkpt lat="46.46334618" lon="6.32435457"><ele>444.292999</ele><time>2009-07-21T19:09:19Z</time></trkpt>
<trkpt lat="46.46320721" lon="6.32441056"><ele>442.723999</ele><time>2009-07-21T19:09:25Z</time></trkpt>
<trkpt lat="46.46323118" lon="6.32452254"><ele>442.259003</ele><time>2009-07-21T19:09:27Z</time></trkpt>
<trkpt lat="46.46334417" lon="6.32483460"><ele>442.002014</ele><time>2009-07-21T19:09:31Z</time></trkpt>
<trkpt lat="46.46323923" lon="6.32524858"><ele>440.93399</ele><time>2009-07-21T19:09:36Z</time></trkpt>
<trkpt lat="46.46271016" lon="6.32566860"><ele>437.860992</ele><time>2009-07-21T19:09:43Z</time></trkpt>
<trkpt lat="46.46254420" lon="6.32583858"><ele>436.684998</ele><time>2009-07-21T19:09:45Z</time></trkpt>
<trkpt lat="46.46220616" lon="6.32625055"><ele>434.294006</ele><time>2009-07-21T19:09:49Z</time></trkpt>
<trkpt lat="46.46137015" lon="6.32762460"><ele>431.614014</ele><time>2009-07-21T19:10:01Z</time></trkpt>
<trkpt lat="46.46120318" lon="6.32813757"><ele>429.687988</ele><time>2009-07-21T19:10:05Z</time></trkpt>
<trkpt lat="46.46118022" lon="6.32841862"><ele>428.845001</ele><time>2009-07-21T19:10:07Z</time></trkpt>
<trkpt lat="46.46124920" lon="6.32868357"><ele>428.338989</ele><time>2009-07-21T19:10:09Z</time></trkpt>
<trkpt lat="46.46190315" lon="6.32957054"><ele>424.334991</ele><time>2009-07-21T19:10:18Z</time></trkpt>
<trkpt lat="46.46204716" lon="6.32974162"><ele>423.609009</ele><time>2009-07-21T19:10:20Z</time></trkpt>
<trkpt lat="46.46209518" lon="6.33014655"><ele>421.696991</ele><time>2009-07-21T19:10:25Z</time></trkpt>
<trkpt lat="46.46207917" lon="6.33032558"><ele>421.084015</ele><time>2009-07-21T19:10:27Z</time></trkpt>
<trkpt lat="46.46229819" lon="6.33140358"><ele>418.819</ele><time>2009-07-21T19:10:38Z</time></trkpt>
<trkpt lat="46.46233918" lon="6.33181161"><ele>417.757996</ele><time>2009-07-21T19:10:42Z</time></trkpt>
<trkpt lat="46.46232116" lon="6.33199761"><ele>417.100006</ele><time>2009-07-21T19:10:44Z</time></trkpt>
<trkpt lat="46.46222418" lon="6.33219659"><ele>416.21701</ele><time>2009-07-21T19:10:48Z</time></trkpt>
<trkpt lat="46.46210021" lon="6.33229055"><ele>415.678986</ele><time>2009-07-21T19:10:51Z</time></trkpt>
<trkpt lat="46.46202318" lon="6.33246456"><ele>415.322998</ele><time>2009-07-21T19:10:54Z</time></trkpt>
<trkpt lat="46.46199418" lon="6.33272457"><ele>415.01001</ele><time>2009-07-21T19:10:57Z</time></trkpt>
<trkpt lat="46.46193216" lon="6.33295859"><ele>414.562012</ele><time>2009-07-21T19:11:00Z</time></trkpt>
<trkpt lat="46.46199217" lon="6.33312355"><ele>414.183014</ele><time>2009-07-21T19:11:05Z</time></trkpt>
<trkpt lat="46.46204615" lon="6.33315154"><ele>414.520996</ele><time>2009-07-21T19:11:07Z</time></trkpt>
<trkpt lat="46.46208622" lon="6.33346662"><ele>413.311005</ele><time>2009-07-21T19:11:12Z</time></trkpt>
<trkpt lat="46.46206015" lon="6.33354256"><ele>413.358002</ele><time>2009-07-21T19:11:13Z</time></trkpt>
<trkpt lat="46.46198421" lon="6.33378262"><ele>412.963013</ele><time>2009-07-21T19:11:16Z</time></trkpt>
<trkpt lat="46.46194917" lon="6.33413960"><ele>413.054993</ele><time>2009-07-21T19:11:20Z</time></trkpt>
<trkpt lat="46.46207716" lon="6.33462257"><ele>414.095001</ele><time>2009-07-21T19:11:26Z</time></trkpt>
<trkpt lat="46.46251822" lon="6.33520360"><ele>416.164001</ele><time>2009-07-21T19:11:37Z</time></trkpt>
<trkpt lat="46.46270120" lon="6.33545858"><ele>416.175995</ele><time>2009-07-21T19:11:42Z</time></trkpt>
<trkpt lat="46.46273321" lon="6.33571356"><ele>415.164001</ele><time>2009-07-21T19:11:46Z</time></trkpt>
<trkpt lat="46.46265518" lon="6.33597356"><ele>414.617004</ele><time>2009-07-21T19:11:49Z</time></trkpt>
<trkpt lat="46.46251118" lon="6.33630054"><ele>412.574005</ele><time>2009-07-21T19:11:52Z</time></trkpt>
</trkseg></trk></gpx>